Portsmouth, Virginia - KPWR: 24-hour Summary Portsmouth Weather Records Service - Portsmouth, Virginia



LOCAL CLIMATOLOGICAL DATA: This Month's Data
[updated each morning between 7AM and 9AM]
Station: Portsmouth, Virginia - KPWR Latitude: 36° 48' 04" N Longitude: 76° 19' 37" W Elevation (ground): 13 ft. Time Zone: Eastern

BE SURE TO RELOAD/REFRESH THIS SCREEN FOR DAILY UPDATES BY RIGHT-CLICKING THE BACKGROUND The data in this frame and listed below are final adjusted site data for the time period.


-----------------------------------------------------------------------------------------------------------------------------------------------------------------------------------
WEDNESDAY		Temp	Hi	Low	Out	Dew	Wind	Wind	Wind	Hi	Hi	Wind	Heat	THW			Rain	Heat	Cool	In 	In	In 	In 	Wind	Wind	ISS 	Arc.
Date		Time	Out	Temp	Temp	Hum	Pt.	Speed	Dir	Run	Speed	Dir	Chill	Index	Index	Bar  	Rain	Rate	D-D 	D-D 	Temp	Hum	Dew	Heat	Samp	Tx 	Recept	Int.
05/01/19	1:00 a	71.6	73.0	71.6	87	67.5	4.0	S	4.00	10.0	S	71.6	73.6	73.6	30.231	0.00	0.00	0.000	0.275	88.0	40	60.7	88.1	1403	1	100.0	60
05/01/19	2:00 a	70.8	71.6	70.8	89	67.4	4.0	S	4.00	10.0	S	70.8	72.9	72.9	30.222	0.00	0.00	0.000	0.242	87.6	41	61.0	88.1	1405	1	100.0	60
05/01/19	3:00 a	69.5	70.8	69.5	89	66.1	4.0	SW	4.00	10.0	S	69.5	71.4	71.4	30.213	0.00	0.00	0.000	0.188	87.0	41	60.5	87.6	1405	1	100.0	60
05/01/19	4:00 a	68.3	69.5	68.3	90	65.3	4.0	SW	4.00	7.0	SW	68.3	70.1	70.1	30.214	0.00	0.00	0.000	0.138	86.4	42	60.6	87.1	1405	1	100.0	60
05/01/19	5:00 a	67.0	68.3	67.0	90	64.0	4.0	SW	4.00	10.0	SSW	67.0	68.5	68.5	30.221	0.00	0.00	0.000	0.083	85.7	42	60.0	86.2	1405	1	100.0	60
05/01/19	6:00 a	65.5	67.0	65.5	91	62.8	0.0	SW	0.00	5.0	SW	65.5	66.7	66.7	30.237	0.00	0.00	0.000	0.021	85.0	42	59.3	85.5	1405	1	100.0	60
05/01/19	7:00 a	64.5	65.5	64.4	92	62.1	0.0	SW	0.00	4.0	SW	64.5	65.5	65.5	30.271	0.00	0.00	0.021	0.000	84.8	42	59.2	85.3	1405	1	100.0	60
05/01/19	8:00 a	66.1	66.1	64.4	94	64.3	4.0	SSW	4.00	6.0	SW	66.1	67.5	67.5	30.289	0.00	0.00	0.000	0.046	84.6	43	59.6	85.3	1405	1	100.0	60
05/01/19	9:00 a	74.3	74.3	66.1	82	68.4	4.0	SW	4.00	11.0	SW	74.3	76.6	76.6	30.285	0.00	0.00	0.000	0.388	85.2	43	60.2	85.9	1405	1	100.0	60
05/01/19	10:00 a	82.9	82.9	74.3	65	69.9	5.0	S	5.00	11.0	SSE	82.9	86.7	86.7	30.277	0.00	0.00	0.000	0.746	86.4	43	61.3	87.3	1405	1	100.0	60
05/01/19	11:00 a	83.3	83.4	82.8	65	70.3	5.0	SW	5.00	12.0	SW	83.3	87.6	87.6	30.274	0.00	0.00	0.000	0.763	87.9	44	63.3	89.3	1405	1	100.0	60
05/01/19	12:00 p	85.3	85.3	83.2	62	70.8	6.0	S	6.00	15.0	S	85.3	90.7	90.7	30.262	0.00	0.00	0.000	0.846	89.9	44	65.1	92.7	1405	1	100.0	60
05/01/19	1:00 p	87.6	87.6	85.3	60	72.0	11.0	SSE	11.00	20.0	SSE	86.9	94.4	93.7	30.244	0.00	0.00	0.000	0.942	90.9	35	59.5	91.1	1405	1	100.0	60
05/01/19	2:00 p	88.7	88.7	87.6	54	69.9	10.0	S	10.00	21.0	SSE	88.4	94.4	94.1	30.228	0.00	0.00	0.000	0.987	90.4	33	57.4	90.0	1405	1	100.0	60
05/01/19	3:00 p	89.6	89.6	88.6	47	66.7	11.0	S	11.00	22.0	SSE	89.4	93.5	93.3	30.204	0.00	0.00	0.000	1.025	91.5	32	57.5	91.2	1404	1	100.0	60
05/01/19	4:00 p	90.0	90.0	89.6	45	65.8	11.0	S	11.00	21.0	S	89.9	93.3	93.2	30.180	0.00	0.00	0.000	1.042	95.6	32	61.0	96.8	1405	1	100.0	60
05/01/19	5:00 p	90.0	90.0	90.0	45	65.8	7.0	S	7.00	18.0	SSE	90.0	93.3	93.3	30.171	0.00	0.00	0.000	1.042	92.8	32	58.6	93.0	1405	1	100.0	60
05/01/19	6:00 p	90.0	90.0	90.0	43	64.5	7.0	SSW	7.00	20.0	SSE	90.0	92.5	92.5	30.167	0.00	0.00	0.000	1.042	93.3	35	61.6	94.4	1405	1	100.0	60
05/01/19	7:00 p	90.0	90.0	87.7	42	63.8	7.0	S	7.00	19.0	SSE	90.0	92.0	92.0	30.168	0.00	0.00	0.000	1.042	90.8	32	56.9	90.4	1403	1	100.0	60
05/01/19	8:00 p	82.6	82.6	82.6	61	67.8	10.0	SSE	10.00	18.0	S	81.3	85.3	84.0	30.182	0.00	0.00	0.000	0.733	91.4	35	59.9	91.8	1405	1	100.0	60
05/01/19	9:00 p	78.3	82.6	78.3	68	66.9	10.0	S	10.00	19.0	S	76.5	80.2	78.4	30.197	0.00	0.00	0.000	0.554	88.9	34	56.9	87.9	1405	1	100.0	60
05/01/19	10:00 p	75.5	78.2	75.5	77	67.8	11.0	S	11.00	22.0	SSE	73.2	77.9	75.6	30.206	0.00	0.00	0.000	0.438	88.8	35	57.6	88.0	1405	1	100.0	60
05/01/19	11:00 p	73.7	75.5	73.7	81	67.5	7.0	S	7.00	16.0	S	73.7	75.7	75.7	30.203	0.00	0.00	0.000	0.362	87.3	35	56.3	86.4	1405	1	100.0	60
05/02/19	12:00 a	72.2	73.6	72.2	83	66.7	7.0	S	7.00	19.0	S	72.2	73.9	73.9	30.199	0.00	0.00	0.000	0.300	88.1	36	57.8	87.2	1405	1	100.0	60
THURSDAY		Temp	Hi	Low	Out	Dew	Wind	Wind	Wind	Hi	Hi	Wind	Heat	THW			Rain	Heat	Cool	In 	In	In 	In 	Wind	Wind	ISS 	Arc.
Date		Time	Out	Temp	Temp	Hum	Pt.	Speed	Dir	Run	Speed	Dir	Chill	Index	Index	Bar  	Rain	Rate	D-D 	D-D 	Temp	Hum	Dew	Heat	Samp	Tx 	Recept	Int.
05/02/19	1:00 a	71.4	72.3	71.4	84	66.3	7.0	SSW	7.00	18.0	S	71.4	73.1	73.1	30.197	0.00	0.00	0.000	0.267	86.3	35	55.4	85.6	1404	1	100.0	60
05/02/19	2:00 a	70.2	71.4	70.2	87	66.1	6.0	SSW	6.00	19.0	SSE	70.2	72.0	72.0	30.178	0.00	0.00	0.000	0.217	86.3	36	56.2	85.8	1404	1	100.0	60
05/02/19	3:00 a	69.2	70.2	69.2	89	65.8	7.0	SSW	7.00	19.0	SW	69.2	71.1	71.1	30.163	0.00	0.00	0.000	0.175	86.0	37	56.7	85.7	1405	1	100.0	60
05/02/19	4:00 a	68.7	69.2	68.7	90	65.6	7.0	SSW	7.00	19.0	SW	68.7	70.6	70.6	30.170	0.00	0.00	0.000	0.154	84.5	36	54.6	83.9	1405	1	100.0	60
05/02/19	5:00 a	68.1	68.7	68.1	91	65.4	7.0	SSW	7.00	19.0	SW	68.1	69.9	69.9	30.166	0.00	0.00	0.000	0.129	84.4	37	55.3	84.0	1405	1	100.0	60
05/02/19	6:00 a	67.3	68.1	67.3	93	65.2	7.0	SSW	7.00	19.0	WSW	67.3	68.9	68.9	30.181	0.00	0.00	0.000	0.096	84.5	38	56.1	84.3	1405	1	100.0	60
05/02/19	7:00 a	67.2	67.3	66.8	95	65.7	6.0	SSW	6.00	15.0	WSW	67.2	68.9	68.9	30.193	0.00	0.00	0.000	0.092	84.5	39	56.8	84.5	1405	1	100.0	60
05/02/19	8:00 a	69.0	69.0	67.2	94	67.2	7.0	SSW	7.00	20.0	SSE	69.0	71.2	71.2	30.200	0.00	0.00	0.000	0.167	83.7	36	53.9	83.0	1403	1	100.0	60
05/02/19	9:00 a	72.6	72.7	69.0	87	68.5	7.0	SW	7.00	21.0	SW	72.6	74.7	74.7	30.204	0.00	0.00	0.000	0.317	84.3	39	56.6	84.3	1405	1	100.0	60
05/02/19	10:00 a	76.2	76.2	72.7	80	69.6	10.0	SSW	10.00	27.0	SSW	74.3	79.1	77.2	30.190	0.00	0.00	0.000	0.467	85.7	40	58.6	85.9	1405	1	100.0	60
05/02/19	11:00 a	79.0	79.0	76.2	75	70.4	7.0	SW	7.00	30.0	SW	79.0	82.0	82.0	30.187	0.00	0.00	0.000	0.583	86.0	38	57.4	85.8	1405	1	100.0	60
05/02/19	12:00 p	81.6	81.6	79.0	71	71.3	7.0	SSW	7.00	23.0	SW	81.6	85.8	85.8	30.178	0.00	0.00	0.000	0.692	88.1	38	59.3	87.8	1405	1	100.0	60
05/02/19	1:00 p	83.5	83.5	81.6	65	70.5	7.0	SW	7.00	19.0	SW	83.5	88.0	88.0	30.155	0.00	0.00	0.000	0.771	88.8	39	60.7	89.3	1405	1	100.0	60
05/02/19	2:00 p	85.4	85.5	83.5	53	66.3	10.0	SW	10.00	21.0	WSW	84.5	88.1	87.2	30.139	0.00	0.00	0.000	0.850	89.9	35	58.6	89.7	1405	1	100.0	60
05/02/19	3:00 p	86.6	86.7	85.4	46	63.4	10.0	SSW	10.00	22.0	SW	85.9	88.3	87.6	30.121	0.00	0.00	0.000	0.900	91.3	37	61.4	92.3	1405	1	100.0	60
05/02/19	4:00 p	87.8	87.8	86.6	41	61.2	10.0	SSW	10.00	22.0	SW	87.4	88.3	87.9	30.100	0.00	0.00	0.000	0.950	93.2	31	58.1	93.2	1404	1	100.0	60
05/02/19	5:00 p	88.4	88.4	87.8	36	58.1	11.0	SW	11.00	23.0	SW	87.9	87.7	87.2	30.078	0.00	0.00	0.000	0.975	94.2	33	60.7	95.1	1405	1	100.0	60
05/02/19	6:00 p	87.9	88.4	87.9	40	60.6	10.0	SW	10.00	22.0	SW	87.5	88.0	87.6	30.071	0.00	0.00	0.000	0.954	92.6	31	57.6	92.4	1406	1	100.0	60
05/02/19	7:00 p	85.7	87.9	85.7	42	60.0	10.0	SSW	10.00	22.0	SW	84.9	86.2	85.4	30.074	0.00	0.00	0.000	0.862	93.0	32	58.8	93.2	1404	1	100.0	60
05/02/19	8:00 p	82.2	85.7	82.2	47	60.0	6.0	SSW	6.00	16.0	SW	82.2	82.5	82.5	30.077	0.00	0.00	0.000	0.717	90.9	33	57.8	90.7	1405	1	100.0	60
05/02/19	9:00 p	78.5	82.2	78.5	53	59.9	4.0	SW	4.00	10.0	SSW	78.5	78.9	78.9	30.101	0.00	0.00	0.000	0.563	90.6	34	58.4	90.5	1405	1	100.0	60
05/02/19	10:00 p	75.3	78.5	75.3	67	63.6	5.0	SW	5.00	11.0	S	75.3	76.8	76.8	30.109	0.00	0.00	0.000	0.429	88.9	33	56.1	87.6	1405	1	100.0	60
05/02/19	11:00 p	73.0	75.3	73.0	75	64.6	6.0	S	6.00	14.0	SSE	73.0	74.5	74.5	30.108	0.00	0.00	0.000	0.333	88.5	34	56.6	87.3	1405	1	100.0	60
FRIDAY			Temp	Hi	Low	Out	Dew	Wind	Wind	Wind	Hi	Hi	Wind	Heat	THW			Rain	Heat	Cool	In 	In	In 	In 	Wind	Wind	ISS 	Arc.
Date		Time	Out	Temp	Temp	Hum	Pt.	Speed	Dir	Run	Speed	Dir	Chill	Index	Index	Bar  	Rain	Rate	D-D 	D-D 	Temp	Hum	Dew	Heat	Samp	Tx 	Recept	Int.
05/03/19	1:00 a	70.4	71.7	70.4	82	64.6	5.0	SSW	5.00	16.0	SSE	70.4	71.8	71.8	30.109	0.00	0.00	0.000	0.225	86.4	37	57.0	86.1	1403	1	100.0	60
05/03/19	2:00 a	69.1	70.4	69.1	86	64.7	6.0	SSW	6.00	15.0	SSE	69.1	70.9	70.9	30.088	0.00	0.00	0.000	0.171	86.0	39	58.2	86.0	1405	1	100.0	60
05/03/19	3:00 a	68.0	69.1	68.0	88	64.3	5.0	SSW	5.00	14.0	SE	68.0	69.6	69.6	30.076	0.00	0.00	0.000	0.125	85.4	40	58.3	85.5	1405	1	100.0	60
05/03/19	4:00 a	66.9	68.0	66.9	91	64.2	5.0	SSW	5.00	12.0	SSE	66.9	68.4	68.4	30.070	0.00	0.00	0.000	0.079	84.9	41	58.6	85.2	1405	1	100.0	60
05/03/19	5:00 a	65.9	66.9	65.8	93	63.8	4.0	SW	4.00	11.0	S	65.9	67.2	67.2	30.058	0.00	0.00	0.000	0.038	84.3	41	58.0	84.7	1404	1	100.0	60
05/03/19	6:00 a	65.2	65.8	65.2	94	63.4	5.0	SSW	5.00	12.0	SW	65.2	66.4	66.4	30.067	0.00	0.00	0.000	0.008	83.9	40	57.0	84.1	1405	1	100.0	60
05/03/19	7:00 a	65.2	65.3	64.9	96	64.0	5.0	SW	5.00	11.0	SSE	65.2	66.5	66.5	30.074	0.00	0.00	0.000	0.008	83.1	40	56.3	82.9	1405	1	100.0	60
05/03/19	8:00 a	67.2	67.2	65.2	96	66.0	5.0	SSW	5.00	15.0	WSW	67.2	68.9	68.9	30.069	0.00	0.00	0.000	0.092	83.5	42	58.0	83.8	1405	1	100.0	60
05/03/19	9:00 a	72.5	72.5	67.2	90	69.4	7.0	SW	7.00	18.0	SW	72.5	74.8	74.8	30.075	0.00	0.00	0.000	0.313	84.3	44	60.0	85.2	1405	1	100.0	60
05/03/19	10:00 a	76.8	76.8	72.5	79	69.8	7.0	SW	7.00	24.0	W	76.8	79.7	79.7	30.068	0.00	0.00	0.000	0.492	81.5	44	57.5	81.1	1405	1	100.0	60
05/03/19	11:00 a	79.2	79.2	76.8	74	70.2	10.0	SSW	10.00	20.0	SW	77.5	82.2	80.5	30.071	0.00	0.00	0.000	0.592	81.7	48	60.1	81.9	1405	1	100.0	60
05/03/19	12:00 p	82.5	82.5	79.2	65	69.5	7.0	SSW	7.00	19.0	SW	82.5	86.0	86.0	30.058	0.00	0.00	0.000	0.729	82.6	46	59.7	83.0	1405	1	100.0	60
05/03/19	1:00 p	83.6	83.6	82.5	56	66.2	10.0	SSW	10.00	19.0	SSE	82.5	86.1	85.0	30.038	0.00	0.00	0.000	0.775	84.3	41	58.0	84.7	1405	1	100.0	60
05/03/19	2:00 p	84.4	84.4	83.6	53	65.4	10.0	SW	10.00	20.0	SW	83.4	86.8	85.8	30.011	0.00	0.00	0.000	0.808	85.4	43	60.4	86.1	1405	1	100.0	60
05/03/19	3:00 p	86.0	86.0	84.4	54	67.4	7.0	SSW	7.00	19.0	SW	86.0	89.4	89.4	29.986	0.00	0.00	0.000	0.875	86.3	36	56.2	85.8	1405	1	100.0	60
05/03/19	4:00 p	86.8	86.8	86.0	50	65.9	10.0	SW	10.00	20.0	SW	86.2	89.7	89.1	29.957	0.00	0.00	0.000	0.908	89.5	40	62.0	90.6	1405	1	100.0	60
05/03/19	5:00 p	86.8	86.9	86.7	52	67.1	7.0	SSW	7.00	18.0	SW	86.8	90.4	90.4	29.930	0.00	0.00	0.000	0.908	88.5	32	54.9	86.8	1405	1	100.0	60
05/03/19	6:00 p	87.3	87.4	86.8	51	67.0	7.0	SSW	7.00	21.0	SSE	87.3	90.8	90.8	29.920	0.00	0.00	0.000	0.929	89.8	39	61.5	90.7	1405	1	100.0	60
05/03/19	7:00 p	85.6	87.3	85.6	60	70.1	10.0	S	10.00	20.0	S	84.8	90.7	89.9	29.913	0.00	0.00	0.000	0.858	88.0	38	59.2	87.6	1404	1	100.0	60
05/03/19	8:00 p	81.9	85.6	81.9	66	69.4	11.0	S	11.00	25.0	S	80.2	85.2	83.5	29.927	0.00	0.00	0.000	0.704	90.0	34	57.9	89.7	1405	1	100.0	60
05/03/19	9:00 p	78.6	81.9	78.6	71	68.4	7.0	S	7.00	19.0	SSE	78.6	80.9	80.9	29.948	0.00	0.00	0.000	0.567	87.3	35	56.3	86.4	1405	1	100.0	60
05/03/19	10:00 p	76.9	78.6	76.9	78	69.5	7.0	S	7.00	17.0	S	76.9	79.7	79.7	29.946	0.00	0.00	0.000	0.496	87.9	40	60.6	88.0	1405	1	100.0	60
05/03/19	11:00 p	75.6	76.9	75.6	84	70.4	7.0	S	7.00	16.0	SSW	75.6	78.6	78.6	29.940	0.00	0.00	0.000	0.442	88.1	42	62.1	88.9	1405	1	100.0	60
05/04/19	12:00 a	74.4	75.6	74.4	88	70.6	6.0	S	6.00	16.0	SSE	74.4	77.1	77.1	29.941	0.00	0.00	0.000	0.392	86.0	38	57.4	85.8	1405	1	100.0	60
SATURDAY		Temp	Hi	Low	Out	Dew	Wind	Wind	Wind	Hi	Hi	Wind	Heat	THW			Rain	Heat	Cool	In 	In	In 	In 	Wind	Wind	ISS 	Arc.
Date		Time	Out	Temp	Temp	Hum	Pt.	Speed	Dir	Run	Speed	Dir	Chill	Index	Index	Bar  	Rain	Rate	D-D 	D-D 	Temp	Hum	Dew	Heat	Samp	Tx 	Recept	Int.
05/04/19	1:00 a	73.6	74.4	73.6	90	70.5	6.0	S	6.00	20.0	SSE	73.6	76.0	76.0	29.930	0.00	0.00	0.000	0.358	86.4	42	60.6	87.1	1404	1	100.0	60
05/04/19	2:00 a	72.4	73.6	72.4	92	69.9	6.0	S	6.00	15.0	SSE	72.4	74.9	74.9	29.909	0.00	0.00	0.000	0.308	86.3	41	59.8	86.8	1405	1	100.0	60
05/04/19	3:00 a	71.5	72.4	71.5	94	69.7	5.0	S	5.00	14.0	SSW	71.5	74.1	74.1	29.888	0.00	0.00	0.000	0.271	85.8	43	60.7	86.5	1405	1	100.0	60
05/04/19	4:00 a	70.6	71.5	70.6	94	68.8	4.0	S	4.00	11.0	SSE	70.6	73.1	73.1	29.879	0.00	0.00	0.000	0.233	85.5	43	60.4	86.2	1405	1	100.0	60
05/04/19	5:00 a	70.0	70.6	70.0	95	68.5	4.0	S	4.00	10.0	S	70.0	72.5	72.5	29.869	0.00	0.00	0.000	0.208	85.2	43	60.2	85.9	1405	1	100.0	60
05/04/19	6:00 a	69.9	70.0	69.9	96	68.7	5.0	S	5.00	12.0	SW	69.9	72.6	72.6	29.864	0.00	0.00	0.000	0.204	85.4	43	60.4	86.1	1405	1	100.0	60
05/04/19	7:00 a	70.1	70.1	69.9	97	69.2	6.0	SW	6.00	14.0	SSE	70.1	73.0	73.0	29.879	0.00	0.00	0.000	0.212	85.3	41	58.9	85.6	1405	1	100.0	60
05/04/19	8:00 a	71.1	71.1	70.1	97	70.2	6.0	SW	6.00	14.0	SW	71.1	74.2	74.2	29.883	0.00	0.00	0.000	0.254	84.3	43	59.4	85.0	1405	1	100.0	60
05/04/19	9:00 a	74.5	74.5	71.1	91	71.7	6.0	SW	6.00	15.0	SW	74.5	77.5	77.5	29.888	0.00	0.00	0.000	0.396	83.3	41	57.1	83.3	1404	1	100.0	60
05/04/19	10:00 a	77.7	77.8	74.5	81	71.4	6.0	SW	6.00	17.0	WSW	77.7	81.1	81.1	29.878	0.00	0.00	0.000	0.529	84.9	44	60.6	85.7	1405	1	100.0	60
05/04/19	11:00 a	79.6	79.6	77.7	77	71.8	6.0	SW	6.00	15.0	SW	79.6	83.3	83.3	29.863	0.00	0.00	0.000	0.608	84.4	40	57.4	84.6	1405	1	100.0	60
05/04/19	12:00 p	82.1	82.1	79.6	71	71.8	6.0	SW	6.00	17.0	S	82.1	86.8	86.8	29.836	0.00	0.00	0.000	0.712	87.0	43	61.8	88.1	1405	1	100.0	60
05/04/19	1:00 p	83.6	83.6	82.0	69	72.3	6.0	SW	6.00	15.0	SW	83.6	89.6	89.6	29.805	0.00	0.00	0.000	0.775	88.2	38	59.4	87.9	1405	1	100.0	60
05/04/19	2:00 p	84.5	84.5	83.6	65	71.4	7.0	W	7.00	17.0	S	84.5	90.1	90.1	29.791	0.00	0.00	0.000	0.813	89.7	41	62.9	91.2	1405	1	100.0	60
05/04/19	3:00 p	87.0	87.0	84.5	62	72.4	6.0	SSW	6.00	15.0	WNW	87.0	94.4	94.4	29.777	0.00	0.00	0.000	0.917	90.9	36	60.3	91.4	1405	1	100.0	60
05/04/19	4:00 p	86.7	87.1	86.7	60	71.2	6.0	WSW	6.00	16.0	W	86.7	93.0	93.0	29.754	0.00	0.00	0.000	0.904	93.4	38	64.0	96.0	1405	1	100.0	60
05/04/19	5:00 p	88.0	88.0	86.7	56	70.3	5.0	W	5.00	15.0	WNW	88.0	93.5	93.5	29.745	0.00	0.00	0.000	0.958	94.3	30	58.1	94.4	1405	1	100.0	60
05/04/19	6:00 p	89.0	89.0	88.0	52	69.1	5.0	SW	5.00	13.0	WNW	89.0	94.4	94.4	29.734	0.00	0.00	0.000	1.000	93.6	38	64.2	96.4	1405	1	100.0	60
05/04/19	7:00 p	87.7	89.1	87.7	54	69.0	5.0	WSW	5.00	12.0	W	87.7	92.4	92.4	29.731	0.00	0.00	0.000	0.946	94.4	38	64.9	97.7	1405	1	100.0	60
05/04/19	8:00 p	84.8	87.7	84.8	65	71.7	4.0	WSW	4.00	7.0	WNW	84.8	90.7	90.7	29.731	0.00	0.00	0.000	0.825	94.3	39	65.5	98.1	1405	1	100.0	60
05/04/19	9:00 p	81.5	84.7	81.5	74	72.4	4.0	WSW	4.00	6.0	WSW	81.5	86.2	86.2	29.751	0.00	0.00	0.000	0.688	93.6	39	64.9	96.9	1405	1	100.0	60
05/04/19	10:00 p	79.5	81.4	79.5	79	72.4	4.0	S	4.00	7.0	WSW	79.5	83.5	83.5	29.758	0.00	0.00	0.000	0.604	93.0	39	64.4	95.8	1405	1	100.0	60
05/04/19	11:00 p	77.8	79.5	77.8	79	70.8	4.0	S	4.00	11.0	SSE	77.8	81.0	81.0	29.750	0.00	0.00	0.000	0.533	92.3	39	63.8	94.6	1404	1	100.0	60
05/05/19	12:00 a	76.6	77.8	76.6	80	70.0	4.0	SW	4.00	16.0	SW	76.6	79.6	79.6	29.744	0.00	0.00	0.000	0.483	91.8	40	64.0	94.2	1405	1	100.0	60
SUNDAY			Temp	Hi	Low	Out	Dew	Wind	Wind	Wind	Hi	Hi	Wind	Heat	THW			Rain	Heat	Cool	In 	In	In 	In 	Wind	Wind	ISS 	Arc.
Date		Time	Out	Temp	Temp	Hum	Pt.	Speed	Dir	Run	Speed	Dir	Chill	Index	Index	Bar  	Rain	Rate	D-D 	D-D 	Temp	Hum	Dew	Heat	Samp	Tx 	Recept	Int.
05/05/19	1:00 a	76.7	76.7	76.5	79	69.7	6.0	W	6.00	18.0	W	76.7	79.6	79.6	29.736	0.00	0.00	0.000	0.487	91.3	40	63.6	93.4	1403	1	100.0	60
05/05/19	2:00 a	75.5	76.7	75.5	81	69.3	4.0	WNW	4.00	14.0	WNW	75.5	78.3	78.3	29.734	0.00	0.00	0.000	0.438	91.2	40	63.5	93.2	1405	1	100.0	60
05/05/19	3:00 a	73.9	75.5	73.9	83	68.4	4.0	SW	4.00	10.0	SSW	73.9	76.0	76.0	29.734	0.00	0.00	0.000	0.371	90.8	40	63.1	92.6	1405	1	100.0	60
05/05/19	4:00 a	72.6	73.9	72.6	84	67.5	4.0	SW	4.00	12.0	SSW	72.6	74.5	74.5	29.726	0.00	0.00	0.000	0.317	90.4	40	62.8	91.9	1405	1	100.0	60
05/05/19	5:00 a	71.3	72.6	71.3	86	66.9	4.0	SW	4.00	12.0	SW	71.3	73.2	73.2	29.720	0.00	0.00	0.000	0.263	89.9	40	62.3	91.1	1405	1	100.0	60
05/05/19	6:00 a	70.6	71.3	70.6	85	65.9	5.0	SW	5.00	11.0	SW	70.6	72.3	72.3	29.725	0.00	0.00	0.000	0.233	89.3	40	61.8	90.4	1405	1	100.0	60
05/05/19	7:00 a	70.6	70.6	70.5	85	65.9	5.0	SSW	5.00	15.0	SW	70.6	72.3	72.3	29.731	0.00	0.00	0.000	0.233	88.4	41	61.7	89.2	1405	1	100.0	60
05/05/19	8:00 a	70.9	71.2	70.5	91	68.1	6.0	SSW	6.00	16.0	SW	70.9	73.2	73.2	29.724	0.05	0.40	0.000	0.246	87.8	41	61.2	88.3	1405	1	100.0	60
05/05/19	9:00 a	69.2	70.9	69.2	96	68.0	5.0	SSW	5.00	16.0	SSW	69.2	71.7	71.7	29.744	0.02	0.27	0.000	0.175	87.4	42	61.5	88.2	1405	1	100.0	60
05/05/19	10:00 a	69.1	69.2	68.7	98	68.5	5.0	SSW	5.00	14.0	SSW	69.1	71.8	71.8	29.730	0.11	2.45	0.000	0.171	87.3	42	61.4	88.1	1405	1	100.0	60
05/05/19	11:00 a	71.7	71.7	69.1	100	71.7	5.0	SW	5.00	14.0	WSW	71.7	75.3	75.3	29.710	0.00	0.00	0.000	0.279	85.4	39	57.6	85.4	1404	1	100.0	60
05/05/19	12:00 p	73.3	73.3	71.7	99	73.0	6.0	SW	6.00	20.0	SSE	73.3	76.8	76.8	29.688	0.00	0.00	0.000	0.346	84.7	41	58.4	85.0	1405	1	100.0	60
05/05/19	1:00 p	74.7	74.7	73.3	94	72.9	7.0	SW	7.00	19.0	SW	74.7	78.1	78.1	29.671	0.01	0.00	0.000	0.404	86.9	40	59.7	87.3	1405	1	100.0	60
05/05/19	2:00 p	75.8	75.8	74.7	92	73.3	6.0	SSW	6.00	16.0	SW	75.8	79.5	79.5	29.642	0.00	0.00	0.000	0.450	86.6	39	58.7	86.7	1405	1	100.0	60
05/05/19	3:00 p	77.2	77.7	75.8	90	74.0	5.0	SSW	5.00	12.0	SSE	77.2	81.4	81.4	29.606	0.02	0.05	0.000	0.508	88.0	38	59.2	87.6	1405	1	100.0	60
05/05/19	4:00 p	74.2	77.2	74.1	97	73.3	5.0	SSW	5.00	14.0	WSW	74.2	77.5	77.5	29.588	0.48	5.65	0.000	0.383	87.8	36	57.5	86.9	1401	1	100.0	60
05/05/19	5:00 p	74.8	75.1	74.2	98	74.2	4.0	SSW	4.00	10.0	S	74.8	78.5	78.5	29.577	0.00	0.00	0.000	0.408	88.5	38	59.7	88.5	1405	1	100.0	60
05/05/19	6:00 p	71.6	74.8	71.6	98	71.0	6.0	WSW	6.00	17.0	W	71.6	74.9	74.9	29.591	0.55	4.14	0.000	0.275	87.0	34	55.2	86.0	1401	1	100.0	60
05/05/19	7:00 p	70.7	71.5	70.7	99	70.4	6.0	SSW	6.00	19.0	SW	70.7	74.1	74.1	29.594	0.01	0.00	0.000	0.237	86.9	37	57.5	86.6	1405	1	100.0	60
05/05/19	8:00 p	69.6	70.7	69.6	99	69.3	6.0	SW	6.00	16.0	S	69.6	72.7	72.7	29.626	0.00	0.00	0.000	0.192	85.3	37	56.1	84.9	1405	1	100.0	60
05/05/19	9:00 p	69.1	69.6	69.1	99	68.8	6.0	W	6.00	17.0	WSW	69.1	71.9	71.9	29.649	0.00	0.00	0.000	0.171	85.0	38	56.5	84.7	1405	1	100.0	60
05/05/19	10:00 p	68.6	69.1	68.6	99	68.3	7.0	NW	7.00	18.0	NW	68.6	71.1	71.1	29.666	0.00	0.00	0.000	0.150	84.6	38	56.2	84.4	1405	1	100.0	60
05/05/19	11:00 p	64.6	68.6	64.6	97	63.7	14.0	NW	14.00	27.0	NW	60.1	65.8	61.3	29.721	0.00	0.00	0.017	0.000	83.0	38	54.8	82.3	1405	1	100.0	60
05/06/19	12:00 a	62.7	64.6	62.7	96	61.5	12.0	NNW	12.00	24.0	NNE	58.8	63.5	59.6	29.761	0.00	0.00	0.096	0.000	82.9	40	56.1	82.6	1405	1	100.0	60
MONDAY			Temp	Hi	Low	Out	Dew	Wind	Wind	Wind	Hi	Hi	Wind	Heat	THW			Rain	Heat	Cool	In 	In	In 	In 	Wind	Wind	ISS 	Arc.
Date		Time	Out	Temp	Temp	Hum	Pt.	Speed	Dir	Run	Speed	Dir	Chill	Index	Index	Bar  	Rain	Rate	D-D 	D-D 	Temp	Hum	Dew	Heat	Samp	Tx 	Recept	Int.
05/06/19	1:00 a	61.6	62.7	61.5	97	60.7	7.0	NNW	7.00	18.0	NW	61.2	62.3	61.9	29.791	0.01	0.00	0.142	0.000	82.5	40	55.7	82.0	1403	1	100.0	60
05/06/19	2:00 a	60.1	61.5	60.1	96	59.0	11.0	NNW	11.00	21.0	NW	56.4	60.5	56.8	29.791	0.00	0.00	0.204	0.000	82.0	41	56.0	81.4	1406	1	100.0	60
05/06/19	3:00 a	59.6	60.1	59.6	95	58.2	10.0	NNW	10.00	19.0	NW	56.5	60.0	56.9	29.794	0.00	0.00	0.225	0.000	81.5	41	55.5	80.8	1404	1	100.0	60
05/06/19	4:00 a	57.8	59.6	57.8	92	55.5	12.0	NNW	12.00	23.0	NNW	53.3	58.0	53.5	29.814	0.00	0.00	0.300	0.000	80.7	42	55.5	79.9	1405	1	100.0	60
05/06/19	5:00 a	57.6	57.9	57.6	93	55.6	11.0	NNW	11.00	22.0	N	53.6	57.8	53.8	29.853	0.00	0.00	0.308	0.000	80.0	42	54.8	79.2	1405	1	100.0	60
05/06/19	6:00 a	57.7	57.7	57.6	94	56.0	11.0	NNW	11.00	21.0	WNW	53.7	57.9	53.9	29.872	0.00	0.00	0.304	0.000	79.8	42	54.7	79.1	1405	1	100.0	60
05/06/19	7:00 a	58.0	58.0	57.5	93	56.0	11.0	NNW	11.00	22.0	NW	54.0	58.2	54.2	29.911	0.00	0.00	0.292	0.000	80.2	42	55.0	79.4	1405	1	100.0	60
05/06/19	8:00 a	59.1	59.1	58.0	91	56.5	10.0	N	10.00	22.0	NW	55.9	59.3	56.1	29.936	0.00	0.00	0.246	0.000	80.5	42	55.3	79.7	1405	1	100.0	60
05/06/19	9:00 a	60.0	60.0	59.1	89	56.7	11.0	NNW	11.00	25.0	ENE	56.3	60.3	56.6	29.974	0.00	0.00	0.208	0.000	80.5	42	55.3	79.7	1405	1	100.0	60
05/06/19	10:00 a	60.5	60.5	60.0	90	57.6	10.0	NNW	10.00	20.0	NE	57.6	60.9	58.0	29.995	0.00	0.00	0.188	0.000	80.8	43	56.2	80.2	1405	1	100.0	60
05/06/19	11:00 a	61.8	61.8	60.5	87	57.9	10.0	NE	10.00	18.0	NE	59.1	62.2	59.5	30.012	0.00	0.00	0.133	0.000	80.9	42	55.7	80.1	1405	1	100.0	60
05/06/19	12:00 p	63.4	63.4	61.7	86	59.1	10.0	NNW	10.00	18.0	NNW	60.9	64.0	61.5	30.022	0.00	0.00	0.067	0.000	81.2	42	55.9	80.5	1405	1	100.0	60
05/06/19	1:00 p	64.8	64.8	63.4	81	58.8	11.0	NNW	11.00	22.0	NW	61.9	65.5	62.6	30.009	0.00	0.00	0.008	0.000	82.3	42	56.9	82.0	1404	1	100.0	60
05/06/19	2:00 p	66.8	66.8	64.8	77	59.4	10.0	ENE	10.00	20.0	E	64.8	67.6	65.6	30.013	0.00	0.00	0.000	0.075	83.5	42	58.0	83.8	1406	1	100.0	60
05/06/19	3:00 p	67.2	67.2	66.7	76	59.4	7.0	ENE	7.00	18.0	ENE	67.2	68.0	68.0	30.010	0.00	0.00	0.000	0.092	84.9	42	59.2	85.4	1405	1	100.0	60
05/06/19	4:00 p	68.8	68.8	67.2	74	60.2	7.0	ENE	7.00	16.0	E	68.8	69.7	69.7	30.014	0.00	0.00	0.000	0.158	86.8	34	55.1	85.8	1404	1	100.0	60
05/06/19	5:00 p	69.4	69.4	68.8	74	60.8	7.0	NNW	7.00	16.0	NNW	69.4	70.1	70.1	30.023	0.00	0.00	0.000	0.183	88.1	38	59.3	87.8	1405	1	100.0	60
05/06/19	6:00 p	70.7	70.7	69.4	72	61.2	6.0	NW	6.00	13.0	E	70.7	71.2	71.2	30.042	0.00	0.00	0.000	0.237	88.8	39	60.7	89.3	1405	1	100.0	60
05/06/19	7:00 p	70.7	70.8	70.6	71	60.8	5.0	NE	5.00	11.0	ENE	70.7	71.1	71.1	30.055	0.00	0.00	0.000	0.237	88.0	35	56.9	86.8	1405	1	100.0	60
05/06/19	8:00 p	69.9	70.8	69.9	74	61.2	4.0	ENE	4.00	10.0	NE	69.9	70.4	70.4	30.066	0.00	0.00	0.000	0.204	85.5	36	55.5	84.9	1405	1	100.0	60
05/06/19	9:00 p	67.1	69.9	67.1	80	60.7	4.0	ENE	4.00	10.0	SSE	67.1	68.2	68.2	30.072	0.00	0.00	0.000	0.087	85.1	38	56.6	84.8	1405	1	100.0	60
05/06/19	10:00 p	64.6	67.1	64.6	85	60.0	5.0	SSE	5.00	11.0	SSE	64.6	65.3	65.3	30.107	0.00	0.00	0.017	0.000	84.3	39	56.6	84.3	1405	1	100.0	60
05/06/19	11:00 p	62.4	64.6	62.4	88	58.8	4.0	SSE	4.00	7.0	SSE	62.4	62.9	62.9	30.113	0.00	0.00	0.108	0.000	83.6	39	56.0	83.5	1405	1	100.0	60
TUESDAY			Temp	Hi	Low	Out	Dew	Wind	Wind	Wind	Hi	Hi	Wind	Heat	THW			Rain	Heat	Cool	In 	In	In 	In 	Wind	Wind	ISS 	Arc.
Date		Time	Out	Temp	Temp	Hum	Pt.	Speed	Dir	Run	Speed	Dir	Chill	Index	Index	Bar  	Rain	Rate	D-D 	D-D 	Temp	Hum	Dew	Heat	Samp	Tx 	Recept	Int.
05/07/19	1:00 a	59.2	60.7	59.2	92	56.9	0.0	SSE	0.00	4.0	SSE	59.2	59.5	59.5	30.110	0.00	0.00	0.242	0.000	82.1	40	55.4	81.4	1403	1	100.0	60
05/07/19	2:00 a	58.0	59.2	58.0	93	56.0	0.0	SSE	0.00	5.0	SSE	58.0	58.2	58.2	30.115	0.00	0.00	0.292	0.000	81.3	41	55.3	80.5	1406	1	100.0	60
05/07/19	3:00 a	56.9	58.0	56.9	94	55.2	4.0	SSE	4.00	7.0	SSE	56.9	57.1	57.1	30.114	0.00	0.00	0.337	0.000	80.6	41	54.7	79.7	1404	1	100.0	60
05/07/19	4:00 a	56.1	56.9	56.1	94	54.4	0.0	SSE	0.00	4.0	SSE	56.1	56.3	56.3	30.118	0.00	0.00	0.371	0.000	79.8	41	54.0	79.0	1405	1	100.0	60
05/07/19	5:00 a	55.3	56.1	55.3	95	53.9	0.0	SSE	0.00	4.0	SSE	55.3	55.5	55.5	30.120	0.00	0.00	0.404	0.000	79.1	42	54.0	78.5	1405	1	100.0	60
05/07/19	6:00 a	54.5	55.3	54.5	95	53.1	0.0	---	0.00	0.0	---	54.5	54.7	54.7	30.128	0.00	0.00	0.438	0.000	78.5	42	53.5	77.8	1405	1	100.0	60
05/07/19	7:00 a	54.8	54.8	54.1	97	54.0	0.0	SSE	0.00	5.0	SSE	54.8	55.1	55.1	30.145	0.00	0.00	0.425	0.000	78.6	42	53.6	78.0	1405	1	100.0	60
05/07/19	8:00 a	58.2	58.2	54.9	99	57.9	4.0	SSE	4.00	7.0	SSE	58.2	58.6	58.6	30.168	0.00	0.00	0.283	0.000	78.4	42	53.4	77.7	1405	1	100.0	60
05/07/19	9:00 a	64.0	64.0	58.2	94	62.2	4.0	SW	4.00	10.0	SW	64.0	65.0	65.0	30.180	0.00	0.00	0.042	0.000	79.3	42	54.2	78.7	1405	1	100.0	60
05/07/19	10:00 a	70.3	70.3	64.0	75	62.0	5.0	S	5.00	11.0	SSE	70.3	71.0	71.0	30.194	0.00	0.00	0.000	0.221	81.1	42	55.8	80.4	1405	1	100.0	60
05/07/19	11:00 a	72.1	72.1	70.3	71	62.2	6.0	SSE	6.00	14.0	SSE	72.1	72.9	72.9	30.196	0.00	0.00	0.000	0.296	83.0	43	58.2	83.2	1405	1	100.0	60
05/07/19	12:00 p	73.5	73.5	72.1	67	61.9	5.0	S	5.00	13.0	S	73.5	74.6	74.6	30.200	0.00	0.00	0.000	0.354	84.5	43	59.5	85.2	1405	1	100.0	60
05/07/19	1:00 p	75.5	75.5	73.5	68	64.2	6.0	S	6.00	14.0	S	75.5	77.1	77.1	30.184	0.00	0.00	0.000	0.438	86.2	43	61.1	87.0	1405	1	100.0	60
05/07/19	2:00 p	76.8	76.8	75.5	65	64.1	6.0	S	6.00	15.0	SW	76.8	78.1	78.1	30.173	0.00	0.00	0.000	0.492	87.1	35	56.1	86.3	1405	1	100.0	60
05/07/19	3:00 p	79.1	79.1	76.8	60	64.0	6.0	SSE	6.00	15.0	SE	79.1	80.2	80.2	30.153	0.00	0.00	0.000	0.587	88.1	40	60.7	88.3	1404	1	100.0	60
05/07/19	4:00 p	80.0	80.1	79.1	56	62.9	7.0	SSE	7.00	15.0	SSE	80.0	80.8	80.8	30.130	0.00	0.00	0.000	0.625	90.2	41	63.3	92.0	1405	1	100.0	60
05/07/19	5:00 p	80.2	80.2	79.9	59	64.6	7.0	SSE	7.00	18.0	S	80.2	81.5	81.5	30.118	0.00	0.00	0.000	0.633	89.3	34	57.3	88.5	1405	1	100.0	60
05/07/19	6:00 p	80.6	80.6	80.2	58	64.5	11.0	SSE	11.00	20.0	SE	78.8	81.9	80.1	30.120	0.00	0.00	0.000	0.650	90.8	39	62.4	92.2	1406	1	100.0	60
05/07/19	7:00 p	78.7	80.6	78.7	59	63.2	11.0	SSE	11.00	20.0	S	76.6	79.6	77.5	30.125	0.00	0.00	0.000	0.571	90.6	39	62.3	91.9	1404	1	100.0	60
05/07/19	8:00 p	74.4	78.7	74.4	65	61.9	7.0	SSE	7.00	15.0	SE	74.4	75.6	75.6	30.132	0.00	0.00	0.000	0.392	87.4	35	56.4	86.4	1405	1	100.0	60
05/07/19	9:00 p	69.9	74.3	69.9	73	60.8	7.0	SSE	7.00	16.0	SE	69.9	70.3	70.3	30.142	0.00	0.00	0.000	0.204	87.6	37	58.1	87.1	1405	1	100.0	60
05/07/19	10:00 p	67.0	69.9	67.0	79	60.3	6.0	SSE	6.00	15.0	S	67.0	68.0	68.0	30.141	0.00	0.00	0.000	0.083	84.9	35	54.2	84.1	1405	1	100.0	60
05/07/19	11:00 p	65.0	67.0	65.0	80	58.7	5.0	S	5.00	15.0	SSE	65.0	65.7	65.7	30.137	0.00	0.00	0.000	0.000	85.0	37	55.8	84.6	1405	1	100.0	60
05/08/19	12:00 a	63.4	65.0	63.4	83	58.1	5.0	S	5.00	11.0	S	63.4	63.9	63.9	30.149	0.00	0.00	0.067	0.000	84.3	37	55.2	84.0	1405	1	100.0	60
WEDNESDAY		Temp	Hi	Low	Out	Dew	Wind	Wind	Wind	Hi	Hi	Wind	Heat	THW			Rain	Heat	Cool	In 	In	In 	In 	Wind	Wind	ISS 	Arc.
Date		Time	Out	Temp	Temp	Hum	Pt.	Speed	Dir	Run	Speed	Dir	Chill	Index	Index	Bar  	Rain	Rate	D-D 	D-D 	Temp	Hum	Dew	Heat	Samp	Tx 	Recept	Int.
05/08/19	1:00 a	62.3	63.4	62.3	87	58.4	4.0	S	4.00	10.0	S	62.3	62.7	62.7	30.147	0.00	0.00	0.113	0.000	83.7	38	55.4	83.4	1404	1	100.0	60
05/08/19	2:00 a	61.4	62.3	61.4	89	58.1	0.0	S	0.00	5.0	S	61.4	61.8	61.8	30.138	0.00	0.00	0.150	0.000	83.1	39	55.6	82.7	1405	1	100.0	60
05/08/19	3:00 a	60.6	61.4	60.6	91	58.0	0.0	S	0.00	6.0	S	60.6	61.0	61.0	30.127	0.00	0.00	0.183	0.000	82.4	39	55.0	81.7	1404	1	100.0	60
05/08/19	4:00 a	60.0	60.6	60.0	93	58.0	4.0	S	4.00	5.0	S	60.0	60.4	60.4	30.120	0.00	0.00	0.208	0.000	81.8	39	54.4	80.9	1405	1	100.0	60
05/08/19	5:00 a	59.4	60.0	59.4	94	57.7	0.0	S	0.00	5.0	S	59.4	59.8	59.8	30.118	0.00	0.00	0.233	0.000	81.2	40	54.6	80.3	1405	1	100.0	60
05/08/19	6:00 a	59.0	59.4	59.0	94	57.3	4.0	S	4.00	6.0	S	59.0	59.4	59.4	30.127	0.00	0.00	0.250	0.000	80.7	40	54.1	79.7	1405	1	100.0	60
05/08/19	7:00 a	59.2	59.2	58.9	96	58.1	0.0	S	0.00	5.0	S	59.2	59.6	59.6	30.140	0.00	0.00	0.242	0.000	80.4	40	53.9	79.4	1405	1	100.0	60
05/08/19	8:00 a	62.0	62.0	59.2	98	61.4	4.0	SE	4.00	11.0	S	62.0	62.8	62.8	30.151	0.00	0.00	0.125	0.000	80.3	40	53.8	79.3	1405	1	100.0	60
05/08/19	9:00 a	68.5	68.5	62.0	95	67.0	5.0	S	5.00	12.0	SSE	68.5	70.6	70.6	30.151	0.00	0.00	0.000	0.146	81.2	40	54.6	80.3	1405	1	100.0	60
05/08/19	10:00 a	75.3	75.3	68.5	76	67.2	6.0	SW	6.00	14.0	SSE	75.3	77.6	77.6	30.153	0.00	0.00	0.000	0.429	82.8	42	57.4	82.7	1405	1	100.0	60
05/08/19	11:00 a	77.7	77.7	75.3	65	65.0	6.0	SSW	6.00	16.0	SSE	77.7	79.1	79.1	30.156	0.00	0.00	0.000	0.529	84.8	42	59.2	85.3	1405	1	100.0	60
05/08/19	12:00 p	79.4	79.4	77.7	64	66.2	6.0	S	6.00	14.0	SW	79.4	81.1	81.1	30.141	0.00	0.00	0.000	0.600	85.6	39	57.8	85.6	1405	1	100.0	60
05/08/19	1:00 p	81.8	81.8	79.4	53	63.0	6.0	S	6.00	15.0	SSE	81.8	82.8	82.8	30.135	0.00	0.00	0.000	0.700	86.6	33	54.1	85.4	1405	1	100.0	60
05/08/19	2:00 p	83.6	83.6	81.8	52	64.1	6.0	S	6.00	16.0	S	83.6	85.5	85.5	30.110	0.00	0.00	0.000	0.775	88.9	40	61.5	89.8	1405	1	100.0	60
05/08/19	3:00 p	85.2	85.2	83.6	52	65.6	10.0	SSE	10.00	19.0	SSE	84.3	87.6	86.7	30.096	0.00	0.00	0.000	0.842	88.8	31	54.3	87.0	1405	1	100.0	60
05/08/19	4:00 p	84.0	85.5	84.0	51	63.9	7.0	SSE	7.00	17.0	SSE	84.0	86.0	86.0	30.077	0.00	0.00	0.000	0.792	91.1	38	62.0	92.4	1405	1	100.0	60
05/08/19	5:00 p	84.1	84.1	83.8	54	65.7	11.0	SSE	11.00	21.0	S	82.8	86.6	85.3	30.069	0.00	0.00	0.000	0.796	91.2	34	58.9	91.3	1404	1	100.0	60
05/08/19	6:00 p	83.7	84.1	83.7	49	62.5	12.0	SSE	12.00	22.0	SSE	82.0	85.2	83.5	30.073	0.00	0.00	0.000	0.779	92.8	36	61.9	94.2	1405	1	100.0	60
05/08/19	7:00 p	80.3	83.7	80.3	48	58.8	10.0	SSE	10.00	19.0	S	78.7	80.2	78.6	30.091	0.00	0.00	0.000	0.638	90.3	33	57.3	89.9	1405	1	100.0	60
05/08/19	8:00 p	76.4	80.3	76.4	53	58.0	10.0	SSE	10.00	18.0	SSE	74.5	76.5	74.6	30.106	0.00	0.00	0.000	0.475	89.6	35	58.3	89.3	1405	1	100.0	60
05/08/19	9:00 p	72.9	76.4	72.9	66	60.9	7.0	SSE	7.00	16.0	SSE	72.9	73.6	73.6	30.127	0.00	0.00	0.000	0.329	88.9	36	58.5	88.5	1405	1	100.0	60
05/08/19	10:00 p	70.9	72.9	70.9	78	63.7	7.0	SSE	7.00	15.0	SSE	70.9	72.0	72.0	30.148	0.00	0.00	0.000	0.246	86.6	35	55.7	85.8	1405	1	100.0	60
05/08/19	11:00 p	70.0	71.0	70.0	84	64.9	7.0	SSE	7.00	15.0	SSE	70.0	71.4	71.4	30.152	0.00	0.00	0.000	0.208	86.5	36	56.4	86.0	1405	1	100.0	60
05/09/19	12:00 a	69.4	70.0	69.4	87	65.4	7.0	SSE	7.00	15.0	SSE	69.4	71.2	71.2	30.152	0.00	0.00	0.000	0.183	86.1	37	56.8	85.8	1405	1	100.0	60
THURSDAY		Temp	Hi	Low	Out	Dew	Wind	Wind	Wind	Hi	Hi	Wind	Heat	THW			Rain	Heat	Cool	In 	In	In 	In 	Wind	Wind	ISS 	Arc.
Date		Time	Out	Temp	Temp	Hum	Pt.	Speed	Dir	Run	Speed	Dir	Chill	Index	Index	Bar  	Rain	Rate	D-D 	D-D 	Temp	Hum	Dew	Heat	Samp	Tx 	Recept	Int.
05/09/19	1:00 a	69.1	69.4	69.0	89	65.7	7.0	SSE	7.00	16.0	S	69.1	71.1	71.1	30.158	0.00	0.00	0.000	0.171	85.7	38	57.2	85.5	1404	1	100.0	60
05/09/19	2:00 a	68.8	69.1	68.8	89	65.4	6.0	SSE	6.00	14.0	SSE	68.8	70.7	70.7	30.167	0.00	0.00	0.000	0.158	85.3	39	57.5	85.3	1405	1	100.0	60
05/09/19	3:00 a	68.5	68.8	68.5	90	65.4	6.0	SSE	6.00	14.0	SSE	68.5	70.3	70.3	30.155	0.00	0.00	0.000	0.146	84.8	39	57.1	84.8	1405	1	100.0	60
05/09/19	4:00 a	68.0	68.5	68.0	89	64.6	4.0	SSE	4.00	11.0	SSE	68.0	69.7	69.7	30.163	0.00	0.00	0.000	0.125	84.4	39	56.7	84.4	1405	1	100.0	60
05/09/19	5:00 a	67.5	68.0	67.4	88	63.8	4.0	SSW	4.00	7.0	SSW	67.5	69.0	69.0	30.161	0.00	0.00	0.000	0.104	84.0	40	57.1	84.3	1404	1	100.0	60
05/09/19	6:00 a	66.8	67.4	66.8	88	63.1	4.0	S	4.00	10.0	SSE	66.8	68.2	68.2	30.170	0.00	0.00	0.000	0.075	83.6	40	56.7	83.7	1405	1	100.0	60
05/09/19	7:00 a	66.1	66.8	66.1	88	62.4	4.0	S	4.00	7.0	S	66.1	67.3	67.3	30.182	0.00	0.00	0.000	0.046	83.7	40	56.8	83.8	1405	1	100.0	60
05/09/19	8:00 a	67.3	67.3	66.1	90	64.3	5.0	S	5.00	13.0	SSE	67.3	68.9	68.9	30.186	0.00	0.00	0.000	0.096	83.9	40	57.0	84.1	1405	1	100.0	60
05/09/19	9:00 a	73.7	73.7	67.3	80	67.1	6.0	S	6.00	15.0	S	73.7	75.6	75.6	30.187	0.00	0.00	0.000	0.362	83.6	37	54.6	83.1	1405	1	100.0	60
05/09/19	10:00 a	78.5	78.5	73.8	69	67.5	7.0	S	7.00	15.0	S	78.5	80.5	80.5	30.166	0.00	0.00	0.000	0.563	85.0	42	59.3	85.5	1405	1	100.0	60
05/09/19	11:00 a	79.4	79.4	78.5	64	66.2	7.0	SSE	7.00	18.0	SSE	79.4	81.1	81.1	30.153	0.00	0.00	0.000	0.600	85.3	38	56.8	85.1	1405	1	100.0	60
05/09/19	12:00 p	80.7	80.7	79.4	60	65.5	10.0	SSE	10.00	18.0	S	79.2	82.3	80.8	30.139	0.00	0.00	0.000	0.654	87.1	37	57.7	86.7	1405	1	100.0	60
05/09/19	1:00 p	82.0	82.0	80.7	57	65.3	10.0	SSE	10.00	20.0	SSE	80.6	83.7	82.3	30.131	0.00	0.00	0.000	0.708	87.8	38	59.0	87.4	1405	1	100.0	60
05/09/19	2:00 p	83.2	83.3	82.0	57	66.4	12.0	SSE	12.00	22.0	SSE	81.4	85.6	83.8	30.136	0.00	0.00	0.000	0.758	89.0	36	58.6	88.6	1405	1	100.0	60
05/09/19	3:00 p	82.7	83.2	82.6	59	66.9	12.0	SSE	12.00	21.0	ESE	80.9	85.1	83.3	30.124	0.00	0.00	0.000	0.737	90.1	37	60.3	90.6	1405	1	100.0	60
05/09/19	4:00 p	82.8	82.8	82.5	60	67.5	12.0	SSE	12.00	24.0	SSE	81.0	85.4	83.6	30.127	0.00	0.00	0.000	0.742	91.3	33	58.2	91.2	1405	1	100.0	60
05/09/19	5:00 p	82.7	82.9	82.5	58	66.4	11.0	SSE	11.00	20.0	SSE	81.1	84.9	83.3	30.127	0.00	0.00	0.000	0.737	93.1	34	60.6	93.9	1405	1	100.0	60
05/09/19	6:00 p	81.5	82.7	81.5	58	65.3	10.0	SSE	10.00	19.0	SSE	80.1	83.1	81.7	30.112	0.00	0.00	0.000	0.688	91.7	32	57.7	91.5	1405	1	100.0	60
05/09/19	7:00 p	80.3	81.5	80.3	61	65.6	12.0	SSE	12.00	23.0	S	78.1	81.9	79.7	30.098	0.00	0.00	0.000	0.638	91.7	35	60.2	92.2	1405	1	100.0	60
05/09/19	8:00 p	76.6	80.3	76.6	66	64.4	11.0	SSE	11.00	21.0	SSE	74.3	78.0	75.7	30.091	0.00	0.00	0.000	0.483	88.6	37	59.0	88.3	1404	1	100.0	60
05/09/19	9:00 p	73.0	76.6	73.0	75	64.6	11.0	SSE	11.00	20.0	S	70.5	74.5	72.0	30.098	0.00	0.00	0.000	0.333	87.7	39	59.7	87.6	1405	1	100.0	60
05/09/19	10:00 p	71.0	73.0	71.0	78	63.8	7.0	SSE	7.00	19.0	SSE	71.0	72.1	72.1	30.112	0.00	0.00	0.000	0.250	85.9	40	58.8	86.1	1405	1	100.0	60
05/09/19	11:00 p	69.5	71.0	69.5	80	63.1	5.0	S	5.00	12.0	SE	69.5	70.8	70.8	30.126	0.00	0.00	0.000	0.188	85.7	40	58.6	85.9	1405	1	100.0	60
FRIDAY			Temp	Hi	Low	Out	Dew	Wind	Wind	Wind	Hi	Hi	Wind	Heat	THW			Rain	Heat	Cool	In 	In	In 	In 	Wind	Wind	ISS 	Arc.
Date		Time	Out	Temp	Temp	Hum	Pt.	Speed	Dir	Run	Speed	Dir	Chill	Index	Index	Bar  	Rain	Rate	D-D 	D-D 	Temp	Hum	Dew	Heat	Samp	Tx 	Recept	Int.
05/10/19	1:00 a	67.3	68.3	67.3	87	63.3	6.0	SSE	6.00	13.0	SSE	67.3	68.7	68.7	30.124	0.00	0.00	0.000	0.096	84.5	37	55.4	84.1	1404	1	100.0	60
05/10/19	2:00 a	66.3	67.3	66.3	89	63.0	5.0	S	5.00	11.0	SSE	66.3	67.6	67.6	30.118	0.00	0.00	0.000	0.054	83.7	38	55.4	83.4	1405	1	100.0	60
05/10/19	3:00 a	65.1	66.3	65.1	90	62.1	4.0	S	4.00	10.0	S	65.1	66.1	66.1	30.104	0.00	0.00	0.000	0.004	83.3	38	55.0	82.8	1405	1	100.0	60
05/10/19	4:00 a	64.0	65.2	64.0	91	61.3	4.0	S	4.00	5.0	S	64.0	64.8	64.8	30.099	0.00	0.00	0.042	0.000	82.9	39	55.4	82.4	1405	1	100.0	60
05/10/19	5:00 a	63.1	64.0	63.1	93	61.0	0.0	S	0.00	5.0	S	63.1	63.9	63.9	30.093	0.00	0.00	0.079	0.000	82.4	39	55.0	81.7	1405	1	100.0	60
05/10/19	6:00 a	62.6	63.1	62.6	94	60.8	4.0	S	4.00	7.0	S	62.6	63.3	63.3	30.097	0.00	0.00	0.100	0.000	81.9	40	55.2	81.2	1405	1	100.0	60
05/10/19	7:00 a	63.8	63.8	62.6	97	62.9	4.0	S	4.00	10.0	S	63.8	64.8	64.8	30.106	0.00	0.00	0.050	0.000	81.7	40	55.0	80.9	1405	1	100.0	60
05/10/19	8:00 a	66.7	66.7	63.8	97	65.8	6.0	S	6.00	15.0	S	66.7	68.3	68.3	30.099	0.00	0.00	0.000	0.071	82.2	40	55.5	81.6	1404	1	100.0	60
05/10/19	9:00 a	73.8	73.8	66.7	85	69.0	6.0	S	6.00	16.0	SSE	73.8	76.0	76.0	30.100	0.00	0.00	0.000	0.367	83.1	45	59.6	83.7	1405	1	100.0	60
05/10/19	10:00 a	79.1	79.1	73.9	70	68.5	7.0	SSW	7.00	18.0	SSE	79.1	81.4	81.4	30.091	0.00	0.00	0.000	0.587	83.4	40	56.5	83.3	1405	1	100.0	60
05/10/19	11:00 a	79.1	79.1	78.5	71	68.9	7.0	SW	7.00	19.0	SW	79.1	81.6	81.6	30.087	0.00	0.00	0.000	0.587	84.9	40	57.9	85.0	1405	1	100.0	60
05/10/19	12:00 p	80.8	80.8	79.1	65	67.9	7.0	SW	7.00	23.0	SSE	80.8	83.2	83.2	30.079	0.00	0.00	0.000	0.658	85.5	34	53.9	84.6	1405	1	100.0	60
05/10/19	1:00 p	81.8	81.8	80.5	61	67.0	7.0	SSW	7.00	18.0	SSW	81.8	84.1	84.1	30.065	0.00	0.00	0.000	0.700	87.0	39	59.0	87.2	1405	1	100.0	60
05/10/19	2:00 p	83.9	83.9	81.8	58	67.5	10.0	SSW	10.00	21.0	SSE	82.8	87.1	86.0	30.033	0.00	0.00	0.000	0.788	88.0	33	55.3	86.4	1405	1	100.0	60
05/10/19	3:00 p	84.8	84.8	83.9	56	67.4	10.0	SSW	10.00	25.0	WSW	83.9	87.9	87.0	30.023	0.00	0.00	0.000	0.825	89.9	38	60.9	90.5	1405	1	100.0	60
05/10/19	4:00 p	84.8	84.9	84.7	56	67.4	10.0	SW	10.00	21.0	SW	83.9	87.9	87.0	30.004	0.00	0.00	0.000	0.825	91.0	31	56.2	90.4	1405	1	100.0	60
05/10/19	5:00 p	84.4	84.8	84.3	55	66.5	10.0	SSW	10.00	20.0	SW	83.4	87.1	86.1	29.994	0.00	0.00	0.000	0.808	92.4	36	61.6	93.6	1405	1	100.0	60
05/10/19	6:00 p	83.9	84.5	83.8	54	65.5	7.0	SSW	7.00	23.0	SW	83.9	86.3	86.3	29.994	0.00	0.00	0.000	0.788	91.2	30	55.4	90.4	1405	1	100.0	60
05/10/19	7:00 p	82.9	84.0	82.9	56	65.6	7.0	SSW	7.00	17.0	SW	82.9	84.9	84.9	29.993	0.00	0.00	0.000	0.746	91.5	35	60.0	91.9	1405	1	100.0	60
05/10/19	8:00 p	80.7	82.9	80.7	59	65.0	5.0	SSW	5.00	14.0	SSE	80.7	82.1	82.1	29.990	0.00	0.00	0.000	0.654	90.0	34	57.9	89.7	1405	1	100.0	60
05/10/19	9:00 p	77.9	80.7	77.9	64	64.7	4.0	S	4.00	10.0	WSW	77.9	79.2	79.2	29.995	0.00	0.00	0.000	0.538	88.8	36	58.4	88.3	1405	1	100.0	60
05/10/19	10:00 p	75.4	77.9	75.4	72	65.7	4.0	SSE	4.00	10.0	SSE	75.4	77.3	77.3	30.003	0.00	0.00	0.000	0.433	88.2	37	58.6	87.7	1405	1	100.0	60
05/10/19	11:00 p	73.4	75.4	73.4	78	66.1	4.0	SE	4.00	11.0	S	73.4	75.2	75.2	29.997	0.00	0.00	0.000	0.350	86.1	34	54.5	85.2	1404	1	100.0	60
05/11/19	12:00 a	71.7	73.4	71.7	83	66.3	5.0	SW	5.00	12.0	WSW	71.7	73.3	73.3	30.003	0.00	0.00	0.000	0.279	85.8	36	55.8	85.3	1405	1	100.0	60
SATURDAY		Temp	Hi	Low	Out	Dew	Wind	Wind	Wind	Hi	Hi	Wind	Heat	THW			Rain	Heat	Cool	In 	In	In 	In 	Wind	Wind	ISS 	Arc.
Date		Time	Out	Temp	Temp	Hum	Pt.	Speed	Dir	Run	Speed	Dir	Chill	Index	Index	Bar  	Rain	Rate	D-D 	D-D 	Temp	Hum	Dew	Heat	Samp	Tx 	Recept	Int.
05/11/19	1:00 a	70.6	71.7	70.6	86	66.2	5.0	SSW	5.00	12.0	SW	70.6	72.4	72.4	30.010	0.00	0.00	0.000	0.233	85.6	37	56.3	85.2	1403	1	100.0	60
05/11/19	2:00 a	69.6	70.6	69.6	88	65.9	5.0	SSW	5.00	10.0	SSW	69.6	71.4	71.4	30.001	0.00	0.00	0.000	0.192	83.8	35	53.2	83.0	1405	1	100.0	60
05/11/19	3:00 a	68.7	69.6	68.7	90	65.6	5.0	SSW	5.00	12.0	S	68.7	70.6	70.6	29.982	0.00	0.00	0.000	0.154	83.8	37	54.7	83.4	1405	1	100.0	60
05/11/19	4:00 a	68.2	68.8	68.1	91	65.5	5.0	S	5.00	12.0	SSE	68.2	70.0	70.0	29.982	0.00	0.00	0.000	0.133	83.6	37	54.6	83.1	1405	1	100.0	60
05/11/19	5:00 a	68.2	68.2	68.0	92	65.8	5.0	SW	5.00	11.0	S	68.2	70.0	70.0	29.991	0.00	0.00	0.000	0.133	83.4	38	55.1	83.0	1405	1	100.0	60
05/11/19	6:00 a	68.4	68.4	68.2	92	66.0	5.0	SW	5.00	15.0	SW	68.4	70.3	70.3	30.001	0.00	0.00	0.000	0.142	83.5	38	55.2	83.1	1405	1	100.0	60
05/11/19	7:00 a	68.5	68.5	68.3	93	66.4	5.0	SW	5.00	13.0	SSW	68.5	70.5	70.5	30.010	0.00	0.00	0.000	0.146	83.5	39	55.9	83.3	1405	1	100.0	60
05/11/19	8:00 a	69.8	69.8	68.5	93	67.7	5.0	SW	5.00	12.0	SW	69.8	72.1	72.1	30.014	0.00	0.00	0.000	0.200	83.8	40	56.9	84.0	1405	1	100.0	60
05/11/19	9:00 a	72.0	72.0	69.8	91	69.2	5.0	SW	5.00	12.0	SW	72.0	74.3	74.3	30.007	0.00	0.00	0.000	0.292	82.7	36	53.0	81.6	1405	1	100.0	60
05/11/19	10:00 a	74.9	74.9	72.0	86	70.4	5.0	SW	5.00	13.0	WSW	74.9	77.9	77.9	29.998	0.00	0.00	0.000	0.413	83.8	37	54.7	83.4	1405	1	100.0	60
05/11/19	11:00 a	77.2	77.2	74.9	79	70.2	5.0	SW	5.00	12.0	WNW	77.2	80.2	80.2	29.992	0.00	0.00	0.000	0.508	83.9	35	53.3	83.2	1405	1	100.0	60
05/11/19	12:00 p	79.4	79.4	77.2	77	71.6	5.0	WNW	5.00	10.0	SSE	79.4	83.0	83.0	29.975	0.00	0.00	0.000	0.600	85.8	37	56.5	85.4	1404	1	100.0	60
05/11/19	1:00 p	82.1	82.1	79.4	73	72.6	5.0	S	5.00	12.0	SSE	82.1	87.3	87.3	29.960	0.00	0.00	0.000	0.712	86.8	35	55.9	86.0	1405	1	100.0	60
05/11/19	2:00 p	84.3	84.3	82.1	71	73.9	5.0	S	5.00	13.0	S	84.3	91.9	91.9	29.950	0.00	0.00	0.000	0.804	88.4	37	58.8	88.0	1405	1	100.0	60
05/11/19	3:00 p	80.3	84.6	80.3	73	70.9	7.0	NE	7.00	20.0	ENE	80.3	83.8	83.8	29.937	0.00	0.00	0.000	0.638	90.0	38	61.0	90.7	1405	1	100.0	60
05/11/19	4:00 p	78.5	80.2	78.5	77	70.7	11.0	ENE	11.00	19.0	E	76.4	81.6	79.5	29.913	0.00	0.00	0.000	0.563	89.4	33	56.5	88.5	1405	1	100.0	60
05/11/19	5:00 p	75.1	78.5	75.1	85	70.3	10.0	ENE	10.00	19.0	NNE	73.1	78.1	76.1	29.892	0.00	0.00	0.000	0.421	90.0	37	60.2	90.4	1405	1	100.0	60
05/11/19	6:00 p	71.9	75.1	71.9	95	70.4	6.0	ENE	6.00	20.0	NNE	71.9	74.7	74.7	29.876	0.08	1.26	0.000	0.288	88.7	35	57.5	87.8	1405	1	100.0	60
05/11/19	7:00 p	70.7	71.9	70.6	96	69.5	5.0	ENE	5.00	14.0	ENE	70.7	73.5	73.5	29.869	0.01	0.00	0.000	0.237	87.5	36	57.3	86.8	1405	1	100.0	60
05/11/19	8:00 p	69.5	70.7	69.5	98	68.9	10.0	NE	10.00	25.0	NE	67.4	72.4	70.3	29.899	0.89	6.70	0.000	0.188	85.9	35	55.1	85.2	1405	1	100.0	60
05/11/19	9:00 p	69.1	69.6	69.0	99	68.8	5.0	NE	5.00	12.0	S	69.1	71.9	71.9	29.894	0.74	5.60	0.000	0.171	85.7	37	56.4	85.3	1405	1	100.0	60
05/11/19	10:00 p	68.9	69.2	68.9	100	68.9	4.0	ENE	4.00	10.0	NE	68.9	71.7	71.7	29.868	0.06	1.54	0.000	0.163	83.7	35	53.1	82.8	1405	1	100.0	60
05/11/19	11:00 p	68.6	68.9	68.6	100	68.6	4.0	SE	4.00	7.0	SE	68.6	71.1	71.1	29.867	0.01	0.00	0.000	0.150	83.6	36	53.8	82.9	1405	1	100.0	60
05/12/19	12:00 a	68.6	68.7	68.6	100	68.6	0.0	SE	0.00	5.0	SE	68.6	71.1	71.1	29.858	0.00	0.00	0.000	0.150	84.0	37	54.9	83.7	1399	1	100.0	60
SUNDAY			Temp	Hi	Low	Out	Dew	Wind	Wind	Wind	Hi	Hi	Wind	Heat	THW			Rain	Heat	Cool	In 	In	In 	In 	Wind	Wind	ISS 	Arc.
Date		Time	Out	Temp	Temp	Hum	Pt.	Speed	Dir	Run	Speed	Dir	Chill	Index	Index	Bar  	Rain	Rate	D-D 	D-D 	Temp	Hum	Dew	Heat	Samp	Tx 	Recept	Int.
05/12/19	1:00 a	68.4	68.6	68.4	100	68.4	4.0	SE	4.00	10.0	SSE	68.4	70.8	70.8	29.845	0.00	0.00	0.000	0.142	83.7	37	54.7	83.2	1403	1	100.0	60
05/12/19	2:00 a	68.8	68.8	68.4	100	68.8	5.0	S	5.00	12.0	S	68.8	71.5	71.5	29.826	0.00	0.00	0.000	0.158	83.4	37	54.4	82.8	1405	1	100.0	60
05/12/19	3:00 a	68.5	68.8	68.5	100	68.5	5.0	SSW	5.00	12.0	SSE	68.5	71.0	71.0	29.801	0.00	0.00	0.000	0.146	82.9	38	54.7	82.2	1405	1	100.0	60
05/12/19	4:00 a	68.4	68.5	68.4	100	68.4	5.0	SSW	5.00	13.0	WSW	68.4	70.8	70.8	29.769	0.00	0.00	0.000	0.142	82.7	39	55.2	82.1	1405	1	100.0	60
05/12/19	5:00 a	68.1	68.4	68.1	100	68.1	5.0	S	5.00	11.0	SSW	68.1	70.2	70.2	29.761	0.00	0.00	0.000	0.129	82.6	40	55.8	82.1	1405	1	100.0	60
05/12/19	6:00 a	68.0	68.1	67.9	100	68.0	5.0	S	5.00	11.0	S	68.0	70.0	70.0	29.759	0.00	0.00	0.000	0.125	82.4	40	55.7	81.9	1405	1	100.0	60
05/12/19	7:00 a	68.4	68.4	68.0	100	68.4	6.0	SSW	6.00	17.0	S	68.4	70.8	70.8	29.755	0.00	0.00	0.000	0.142	82.7	41	56.6	82.4	1405	1	100.0	60
05/12/19	8:00 a	69.0	69.0	68.4	100	69.0	6.0	SSW	6.00	14.0	WSW	69.0	71.9	71.9	29.768	0.00	0.00	0.000	0.167	82.8	42	57.4	82.7	1405	1	100.0	60
05/12/19	9:00 a	69.0	69.1	69.0	100	69.0	7.0	SSW	7.00	18.0	SW	69.0	71.9	71.9	29.754	0.08	1.50	0.000	0.167	81.6	38	53.5	80.6	1405	1	100.0	60
05/12/19	10:00 a	69.4	69.4	68.7	100	69.4	6.0	SSW	6.00	16.0	SW	69.4	72.5	72.5	29.736	0.01	0.20	0.000	0.183	82.3	40	55.6	81.7	1405	1	100.0	60
05/12/19	11:00 a	71.6	71.6	69.4	100	71.6	7.0	SW	7.00	19.0	SSW	71.6	75.2	75.2	29.713	0.00	0.00	0.000	0.275	82.9	41	56.8	82.7	1405	1	100.0	60
05/12/19	12:00 p	73.5	73.5	71.6	100	73.5	10.0	SSW	10.00	20.0	SW	71.5	77.1	75.1	29.705	0.00	0.00	0.000	0.354	84.3	41	58.0	84.7	1405	1	100.0	60
05/12/19	1:00 p	73.7	73.7	73.2	100	73.7	11.0	SSW	11.00	26.0	SW	71.2	77.3	74.8	29.687	0.00	0.00	0.000	0.362	84.0	39	56.4	84.1	1405	1	100.0	60
05/12/19	2:00 p	75.1	75.1	73.7	95	73.6	10.0	SW	10.00	23.0	WSW	73.1	78.8	76.8	29.677	0.00	0.00	0.000	0.421	85.5	41	59.1	85.8	1405	1	100.0	60
05/12/19	3:00 p	77.7	77.7	75.1	84	72.5	11.0	SSW	11.00	26.0	SW	75.5	81.5	79.3	29.657	0.00	0.00	0.000	0.529	85.2	38	56.7	85.0	1405	1	100.0	60
05/12/19	4:00 p	74.4	78.2	74.4	95	72.9	10.0	WSW	10.00	23.0	WSW	72.4	77.7	75.7	29.636	0.21	4.33	0.000	0.392	86.5	39	58.6	86.6	1404	1	100.0	60
05/12/19	5:00 p	74.0	74.6	73.9	95	72.5	6.0	W	6.00	18.0	W	74.0	77.0	77.0	29.641	0.00	0.00	0.000	0.375	87.6	38	58.9	87.3	1405	1	100.0	60
05/12/19	6:00 p	73.6	73.9	73.4	92	71.1	7.0	SSW	7.00	22.0	SSW	73.6	76.2	76.2	29.654	0.00	0.00	0.000	0.358	86.7	39	58.8	86.8	1405	1	100.0	60
05/12/19	7:00 p	74.1	74.2	73.6	89	70.6	6.0	SW	6.00	20.0	S	74.1	76.6	76.6	29.661	0.00	0.00	0.000	0.379	87.3	40	60.0	87.6	1405	1	100.0	60
05/12/19	8:00 p	73.7	74.1	73.7	89	70.3	4.0	SW	4.00	7.0	SW	73.7	76.1	76.1	29.673	0.00	0.00	0.000	0.362	84.9	36	55.0	84.3	1405	1	100.0	60
05/12/19	9:00 p	67.4	73.7	67.4	92	65.0	10.0	NE	10.00	19.0	NE	65.4	69.0	67.0	29.719	0.00	0.00	0.000	0.100	85.0	38	56.5	84.7	1405	1	100.0	60
05/12/19	10:00 p	65.8	67.4	65.8	93	63.7	10.0	NE	10.00	17.0	ENE	63.8	67.1	65.1	29.716	0.00	0.00	0.000	0.033	84.3	38	55.9	84.2	1405	1	100.0	60
05/12/19	11:00 p	65.9	65.9	65.7	94	64.1	6.0	NE	6.00	16.0	ENE	65.9	67.3	67.3	29.724	0.00	0.00	0.000	0.038	83.0	38	54.8	82.3	1405	1	100.0	60
05/13/19	12:00 a	62.8	66.0	62.8	93	60.7	7.0	ENE	7.00	18.0	NE	62.7	63.5	63.4	29.737	0.00	0.00	0.092	0.000	82.9	39	55.4	82.4	1405	1	100.0	60
MONDAY			Temp	Hi	Low	Out	Dew	Wind	Wind	Wind	Hi	Hi	Wind	Heat	THW			Rain	Heat	Cool	In 	In	In 	In 	Wind	Wind	ISS 	Arc.
Date		Time	Out	Temp	Temp	Hum	Pt.	Speed	Dir	Run	Speed	Dir	Chill	Index	Index	Bar  	Rain	Rate	D-D 	D-D 	Temp	Hum	Dew	Heat	Samp	Tx 	Recept	Int.
05/13/19	1:00 a	60.2	62.7	60.2	95	58.8	7.0	ENE	7.00	18.0	ENE	59.4	60.6	59.8	29.726	0.00	0.00	0.200	0.000	82.5	40	55.7	82.0	1404	1	100.0	60
05/13/19	2:00 a	59.5	60.2	59.5	96	58.4	6.0	ENE	6.00	16.0	ENE	59.0	59.9	59.4	29.716	0.00	0.00	0.229	0.000	81.9	41	55.9	81.3	1405	1	100.0	60
05/13/19	3:00 a	59.4	59.5	59.4	96	58.3	7.0	ENE	7.00	15.0	NE	58.5	59.8	58.9	29.704	0.00	0.00	0.233	0.000	81.5	41	55.5	80.8	1405	1	100.0	60
05/13/19	4:00 a	58.8	59.4	58.8	97	58.0	10.0	NE	10.00	17.0	ENE	55.6	59.2	56.0	29.705	0.00	0.00	0.258	0.000	80.9	42	55.7	80.1	1404	1	100.0	60
05/13/19	5:00 a	58.2	58.8	58.2	97	57.4	10.0	NE	10.00	18.0	NNE	54.8	58.6	55.2	29.706	0.01	0.00	0.283	0.000	80.4	42	55.2	79.6	1405	1	100.0	60
05/13/19	6:00 a	57.9	58.2	57.8	98	57.3	7.0	NE	7.00	17.0	ENE	56.7	58.3	57.1	29.716	0.00	0.00	0.296	0.000	80.3	42	55.1	79.5	1405	1	100.0	60
05/13/19	7:00 a	57.8	57.9	57.8	98	57.2	10.0	ENE	10.00	16.0	ENE	54.4	58.2	54.8	29.715	0.00	0.00	0.300	0.000	80.3	42	55.1	79.5	1405	1	100.0	60
05/13/19	8:00 a	58.0	58.0	57.8	99	57.7	7.0	ENE	7.00	14.0	NE	56.8	58.4	57.2	29.729	0.00	0.00	0.292	0.000	80.5	42	55.3	79.7	1405	1	100.0	60
05/13/19	9:00 a	58.5	58.5	57.9	99	58.2	7.0	NE	7.00	15.0	NE	57.4	58.9	57.8	29.714	0.00	0.00	0.271	0.000	80.5	42	55.3	79.7	1405	1	100.0	60
05/13/19	10:00 a	59.5	59.5	58.5	99	59.2	5.0	NE	5.00	12.0	E	59.4	60.0	59.9	29.718	0.01	0.00	0.229	0.000	80.3	43	55.8	79.7	1405	1	100.0	60
05/13/19	11:00 a	60.7	60.7	59.5	99	60.4	6.0	NW	6.00	14.0	E	60.4	61.3	61.0	29.711	0.00	0.00	0.179	0.000	80.2	43	55.7	79.6	1405	1	100.0	60
05/13/19	12:00 p	61.5	61.6	60.7	96	60.3	6.0	NE	6.00	14.0	NNW	61.4	62.1	62.0	29.719	0.00	0.00	0.146	0.000	80.3	43	55.8	79.7	1405	1	100.0	60
05/13/19	1:00 p	62.6	62.6	61.5	94	60.8	6.0	NNW	6.00	14.0	NW	62.6	63.3	63.3	29.692	0.00	0.00	0.100	0.000	80.5	43	55.9	79.9	1405	1	100.0	60
05/13/19	2:00 p	66.4	66.4	62.6	88	62.7	5.0	S	5.00	14.0	NNW	66.4	67.7	67.7	29.686	0.00	0.00	0.000	0.058	82.0	43	57.3	81.7	1405	1	100.0	60
05/13/19	3:00 p	65.7	66.8	65.7	88	62.0	10.0	NNW	10.00	17.0	NNW	63.6	66.8	64.7	29.702	0.00	0.00	0.000	0.029	83.0	43	58.2	83.2	1404	1	100.0	60
05/13/19	4:00 p	66.0	66.0	65.3	88	62.3	7.0	NNW	7.00	17.0	NNW	66.0	67.2	67.2	29.693	0.00	0.00	0.000	0.042	83.6	43	58.7	84.1	1405	1	100.0	60
05/13/19	5:00 p	65.6	66.1	65.6	87	61.6	11.0	NNW	11.00	22.0	NW	62.8	66.6	63.8	29.704	0.00	0.00	0.000	0.025	83.9	43	59.0	84.6	1405	1	100.0	60
05/13/19	6:00 p	63.6	65.6	63.6	87	59.7	12.0	NW	12.00	24.0	NNW	59.9	64.2	60.5	29.728	0.00	0.00	0.058	0.000	83.6	43	58.7	84.1	1405	1	100.0	60
05/13/19	7:00 p	63.4	63.6	63.4	86	59.1	7.0	NW	7.00	18.0	NW	63.3	64.0	63.9	29.745	0.00	0.00	0.067	0.000	83.3	43	58.5	83.7	1405	1	100.0	60
05/13/19	8:00 p	62.6	63.4	62.6	84	57.7	10.0	NNW	10.00	18.0	NNW	60.0	63.0	60.4	29.775	0.00	0.00	0.100	0.000	82.9	43	58.1	83.0	1405	1	100.0	60
05/13/19	9:00 p	61.4	62.6	61.4	85	56.8	6.0	NNW	6.00	17.0	NNW	61.3	61.6	61.5	29.794	0.00	0.00	0.150	0.000	82.4	43	57.7	82.3	1405	1	100.0	60
05/13/19	10:00 p	60.4	61.4	60.4	87	56.5	5.0	NE	5.00	12.0	ENE	60.4	60.6	60.6	29.814	0.00	0.00	0.192	0.000	81.7	43	57.0	81.3	1405	1	100.0	60
05/13/19	11:00 p	59.5	60.4	59.5	89	56.3	4.0	N	4.00	10.0	NW	59.5	59.7	59.7	29.816	0.00	0.00	0.229	0.000	81.1	43	56.5	80.5	1405	1	100.0	60
05/14/19	12:00 a	58.6	59.5	58.6	91	56.0	4.0	N	4.00	6.0	N	58.6	58.8	58.8	29.817	0.00	0.00	0.267	0.000	80.5	43	55.9	79.9	1405	1	100.0	60
TUESDAY			Temp	Hi	Low	Out	Dew	Wind	Wind	Wind	Hi	Hi	Wind	Heat	THW			Rain	Heat	Cool	In 	In	In 	In 	Wind	Wind	ISS 	Arc.
Date		Time	Out	Temp	Temp	Hum	Pt.	Speed	Dir	Run	Speed	Dir	Chill	Index	Index	Bar  	Rain	Rate	D-D 	D-D 	Temp	Hum	Dew	Heat	Samp	Tx 	Recept	Int.
05/14/19	1:00 a	58.8	59.0	58.6	89	55.6	4.0	NE	4.00	7.0	NNE	58.8	58.9	58.9	29.816	0.00	0.00	0.258	0.000	79.9	43	55.4	79.3	1404	1	100.0	60
05/14/19	2:00 a	57.3	58.8	57.3	90	54.4	4.0	NE	4.00	6.0	NE	57.3	57.4	57.4	29.801	0.00	0.00	0.321	0.000	79.4	43	55.0	78.8	1405	1	100.0	60
05/14/19	3:00 a	56.0	57.3	56.0	92	53.7	0.0	NE	0.00	4.0	NE	56.0	56.1	56.1	29.799	0.00	0.00	0.375	0.000	78.8	43	54.4	78.3	1404	1	100.0	60
05/14/19	4:00 a	55.8	56.0	55.8	93	53.8	0.0	NE	0.00	5.0	NE	55.8	56.0	56.0	29.799	0.00	0.00	0.383	0.000	78.4	43	54.0	77.8	1406	1	100.0	60
05/14/19	5:00 a	55.4	55.9	55.4	94	53.7	0.0	NE	0.00	5.0	NE	55.4	55.6	55.6	29.810	0.00	0.00	0.400	0.000	77.9	43	53.6	77.3	1404	1	100.0	60
05/14/19	6:00 a	55.3	55.4	55.2	96	54.2	0.0	NE	0.00	4.0	NE	55.3	55.5	55.5	29.815	0.00	0.00	0.404	0.000	77.4	43	53.1	76.8	1405	1	100.0	60
05/14/19	7:00 a	55.8	55.8	55.3	97	55.0	0.0	SSW	0.00	5.0	SSW	55.8	56.1	56.1	29.836	0.00	0.00	0.383	0.000	77.2	44	53.6	76.7	1405	1	100.0	60
05/14/19	8:00 a	57.2	57.2	55.8	98	56.6	4.0	SSW	4.00	7.0	SSW	57.2	57.5	57.5	29.852	0.00	0.00	0.325	0.000	77.6	44	54.0	77.1	1405	1	100.0	60
05/14/19	9:00 a	59.0	59.0	57.2	96	57.9	4.0	SSW	4.00	7.0	SSW	59.0	59.4	59.4	29.860	0.00	0.00	0.250	0.000	78.0	43	53.7	77.4	1405	1	100.0	60
05/14/19	10:00 a	58.9	59.2	58.9	90	56.0	4.0	WNW	4.00	11.0	ENE	58.9	59.1	59.1	29.872	0.00	0.00	0.254	0.000	77.8	44	54.1	77.3	1405	1	100.0	60
05/14/19	11:00 a	57.7	58.9	57.6	93	55.7	5.0	NE	5.00	12.0	ENE	57.2	57.9	57.4	29.875	0.04	0.34	0.304	0.000	77.7	44	54.0	77.2	1405	1	100.0	60
05/14/19	12:00 p	60.1	60.1	57.7	85	55.6	6.0	ENE	6.00	14.0	ENE	59.7	60.2	59.8	29.870	0.00	0.00	0.204	0.000	78.2	44	54.5	77.7	1405	1	100.0	60
05/14/19	1:00 p	62.1	62.1	60.1	76	54.4	7.0	ENE	7.00	16.0	E	61.8	62.0	61.7	29.857	0.00	0.00	0.121	0.000	79.0	44	55.2	78.6	1405	1	100.0	60
05/14/19	2:00 p	63.4	63.4	62.1	74	55.0	6.0	NNW	6.00	16.0	WNW	63.4	63.3	63.3	29.842	0.00	0.00	0.067	0.000	80.0	43	55.5	79.4	1405	1	100.0	60
05/14/19	3:00 p	63.8	64.3	63.4	73	55.0	7.0	NNW	7.00	16.0	NNW	63.8	63.7	63.7	29.842	0.00	0.00	0.050	0.000	80.8	43	56.2	80.2	1405	1	100.0	60
05/14/19	4:00 p	57.7	63.8	57.7	90	54.8	10.0	NW	10.00	30.0	WNW	54.3	57.8	54.4	29.858	0.05	0.65	0.304	0.000	81.1	43	56.5	80.5	1404	1	100.0	60
05/14/19	5:00 p	57.0	57.7	56.6	95	55.6	10.0	NNW	10.00	17.0	NNW	53.5	57.2	53.7	29.856	0.00	0.00	0.333	0.000	81.5	43	56.8	81.0	1405	1	100.0	60
05/14/19	6:00 p	59.4	59.4	57.0	83	54.2	7.0	NW	7.00	17.0	NNE	58.5	59.4	58.5	29.860	0.00	0.00	0.233	0.000	82.0	42	56.6	81.5	1405	1	100.0	60
05/14/19	7:00 p	61.4	61.4	59.4	76	53.8	7.0	WNW	7.00	17.0	NW	60.9	61.2	60.7	29.868	0.00	0.00	0.150	0.000	81.8	42	56.5	81.3	1405	1	100.0	60
05/14/19	8:00 p	60.7	61.8	60.7	68	50.1	7.0	WNW	7.00	16.0	NW	60.0	60.0	59.3	29.885	0.00	0.00	0.179	0.000	81.2	42	55.9	80.5	1405	1	100.0	60
05/14/19	9:00 p	59.6	60.8	59.6	69	49.4	6.0	NW	6.00	14.0	NNW	59.1	58.9	58.4	29.912	0.00	0.00	0.225	0.000	80.6	42	55.4	79.8	1405	1	100.0	60
05/14/19	10:00 p	59.3	59.6	59.3	66	47.9	10.0	NNW	10.00	19.0	W	56.2	58.4	55.3	29.931	0.00	0.00	0.238	0.000	80.1	42	54.9	79.3	1405	1	100.0	60
05/14/19	11:00 p	58.3	59.3	58.3	69	48.2	7.0	NW	7.00	17.0	NW	57.2	57.5	56.4	29.943	0.00	0.00	0.279	0.000	79.3	42	54.2	78.7	1405	1	100.0	60
05/15/19	12:00 a	56.8	58.3	56.8	67	46.0	6.0	NW	6.00	15.0	W	55.8	55.9	54.9	29.950	0.00	0.00	0.342	0.000	78.8	42	53.8	78.2	1405	1	100.0	60
WEDNESDAY		Temp	Hi	Low	Out	Dew	Wind	Wind	Wind	Hi	Hi	Wind	Heat	THW			Rain	Heat	Cool	In 	In	In 	In 	Wind	Wind	ISS 	Arc.
Date		Time	Out	Temp	Temp	Hum	Pt.	Speed	Dir	Run	Speed	Dir	Chill	Index	Index	Bar  	Rain	Rate	D-D 	D-D 	Temp	Hum	Dew	Heat	Samp	Tx 	Recept	Int.
05/15/19	1:00 a	55.8	56.8	55.7	69	45.8	6.0	NW	6.00	21.0	NNW	54.6	55.0	53.8	29.953	0.00	0.00	0.383	0.000	78.2	42	53.2	77.5	1404	1	100.0	60
05/15/19	2:00 a	54.7	56.0	54.7	73	46.2	6.0	NW	6.00	27.0	WNW	53.2	54.1	52.6	29.945	0.00	0.00	0.429	0.000	77.5	42	52.6	76.8	1405	1	100.0	60
05/15/19	3:00 a	55.4	55.5	54.7	70	45.8	11.0	NNW	11.00	23.0	NNW	51.0	54.6	50.2	29.939	0.00	0.00	0.400	0.000	76.8	42	52.0	76.1	1404	1	100.0	60
05/15/19	4:00 a	54.9	55.4	54.9	71	45.7	10.0	NNW	10.00	19.0	NNW	51.0	54.2	50.3	29.940	0.00	0.00	0.421	0.000	76.1	42	51.3	75.4	1406	1	100.0	60
05/15/19	5:00 a	54.0	55.0	54.0	75	46.3	6.0	NNW	6.00	16.0	NNW	52.4	53.5	51.9	29.936	0.00	0.00	0.458	0.000	75.5	42	50.8	74.8	1404	1	100.0	60
05/15/19	6:00 a	53.4	54.0	53.4	77	46.4	7.0	NNW	7.00	17.0	N	51.3	53.0	50.9	29.951	0.00	0.00	0.483	0.000	74.9	42	50.3	74.3	1405	1	100.0	60
05/15/19	7:00 a	54.3	54.3	53.1	77	47.2	6.0	NNW	6.00	16.0	NW	52.8	53.9	52.4	29.977	0.00	0.00	0.446	0.000	79.3	40	52.9	78.4	1405	1	100.0	60
05/15/19	8:00 a	55.8	55.8	54.3	74	47.6	10.0	NNW	10.00	20.0	N	52.1	55.2	51.5	30.000	0.00	0.00	0.383	0.000	79.3	40	52.9	78.4	1405	1	100.0	60
05/15/19	9:00 a	59.8	59.8	55.8	68	49.2	10.0	NNW	10.00	21.0	NW	56.8	59.1	56.1	30.002	0.00	0.00	0.217	0.000	79.4	40	53.0	78.5	1405	1	100.0	60
05/15/19	10:00 a	61.9	62.0	59.8	61	48.3	10.0	NNW	10.00	17.0	NNW	59.2	60.8	58.1	30.008	0.00	0.00	0.129	0.000	80.0	40	53.5	79.0	1405	1	100.0	60
05/15/19	11:00 a	62.6	62.6	62.0	62	49.4	7.0	ENE	7.00	16.0	NNW	62.4	61.7	61.5	30.005	0.00	0.00	0.100	0.000	81.2	42	55.9	80.5	1405	1	100.0	60
05/15/19	12:00 p	64.1	64.1	62.6	55	47.6	7.0	NNW	7.00	17.0	WNW	64.1	62.8	62.8	30.005	0.00	0.00	0.038	0.000	82.4	42	57.0	82.1	1405	1	100.0	60
05/15/19	1:00 p	65.7	65.7	64.0	52	47.6	7.0	NW	7.00	18.0	WNW	65.7	64.3	64.3	29.989	0.00	0.00	0.000	0.029	83.5	42	58.0	83.8	1405	1	100.0	60
05/15/19	2:00 p	66.8	66.8	65.7	48	46.5	7.0	NNW	7.00	19.0	WSW	66.8	65.2	65.2	29.974	0.00	0.00	0.000	0.075	84.8	42	59.2	85.3	1405	1	100.0	60
05/15/19	3:00 p	68.1	68.1	66.8	46	46.5	10.0	NW	10.00	18.0	NNW	66.0	66.4	64.3	29.966	0.00	0.00	0.000	0.129	86.1	42	60.3	86.7	1405	1	100.0	60
05/15/19	4:00 p	69.6	69.6	68.1	42	45.5	10.0	NNW	10.00	18.0	NNW	67.5	67.2	65.1	29.944	0.00	0.00	0.000	0.192	88.1	41	61.4	88.6	1405	1	100.0	60
05/15/19	5:00 p	72.0	72.0	69.6	44	48.9	6.0	WSW	6.00	15.0	WNW	72.0	70.5	70.5	29.942	0.00	0.00	0.000	0.292	89.5	39	61.3	90.3	1405	1	100.0	60
05/15/19	6:00 p	72.9	73.2	72.0	40	47.2	6.0	WNW	6.00	16.0	WNW	72.9	71.5	71.5	29.945	0.00	0.00	0.000	0.329	90.3	37	60.5	90.9	1405	1	100.0	60
05/15/19	7:00 p	72.5	72.9	72.5	44	49.3	5.0	W	5.00	15.0	W	72.5	71.3	71.3	29.943	0.00	0.00	0.000	0.313	89.7	36	59.2	89.7	1404	1	100.0	60
05/15/19	8:00 p	70.1	72.5	70.1	48	49.5	4.0	SW	4.00	11.0	SW	70.1	68.2	68.2	29.954	0.00	0.00	0.000	0.212	88.2	37	58.6	87.7	1405	1	100.0	60
05/15/19	9:00 p	66.3	70.1	66.3	57	50.6	4.0	SSW	4.00	5.0	SSW	66.3	65.4	65.4	29.964	0.00	0.00	0.000	0.054	86.4	37	57.0	86.1	1405	1	100.0	60
05/15/19	10:00 p	62.5	66.3	62.5	65	50.6	0.0	SSW	0.00	6.0	SSW	62.5	61.9	61.9	29.970	0.00	0.00	0.104	0.000	84.5	38	56.1	84.3	1405	1	100.0	60
05/15/19	11:00 p	59.8	62.5	59.8	68	49.2	4.0	SW	4.00	10.0	SW	59.8	59.1	59.1	29.972	0.00	0.00	0.217	0.000	83.2	38	55.0	82.7	1405	1	100.0	60
05/16/19	12:00 a	58.2	59.8	58.2	73	49.6	4.0	SSW	4.00	7.0	SSW	58.2	57.6	57.6	29.970	0.00	0.00	0.283	0.000	82.2	39	54.8	81.4	1405	1	100.0	60
THURSDAY		Temp	Hi	Low	Out	Dew	Wind	Wind	Wind	Hi	Hi	Wind	Heat	THW			Rain	Heat	Cool	In 	In	In 	In 	Wind	Wind	ISS 	Arc.
Date		Time	Out	Temp	Temp	Hum	Pt.	Speed	Dir	Run	Speed	Dir	Chill	Index	Index	Bar  	Rain	Rate	D-D 	D-D 	Temp	Hum	Dew	Heat	Samp	Tx 	Recept	Int.
05/16/19	1:00 a	56.7	58.2	56.7	77	49.6	4.0	SW	4.00	10.0	SW	56.6	56.3	56.2	29.968	0.00	0.00	0.346	0.000	81.5	40	54.8	80.7	1404	1	100.0	60
05/16/19	2:00 a	56.8	56.8	56.5	77	49.7	5.0	SW	5.00	13.0	S	56.2	56.4	55.8	29.951	0.00	0.00	0.342	0.000	80.7	40	54.1	79.7	1405	1	100.0	60
05/16/19	3:00 a	57.5	57.5	56.8	76	50.0	5.0	SW	5.00	13.0	SW	57.0	57.1	56.6	29.945	0.00	0.00	0.313	0.000	80.0	40	53.5	79.0	1405	1	100.0	60
05/16/19	4:00 a	56.3	57.5	56.3	80	50.2	5.0	SW	5.00	11.0	SW	55.6	56.0	55.3	29.937	0.00	0.00	0.363	0.000	79.3	40	52.9	78.4	1405	1	100.0	60
05/16/19	5:00 a	54.3	56.2	54.3	83	49.2	5.0	SW	5.00	10.0	SSW	53.3	54.1	53.1	29.940	0.00	0.00	0.446	0.000	79.0	40	52.6	78.2	1404	1	100.0	60
05/16/19	6:00 a	53.2	54.3	53.2	84	48.5	5.0	SSW	5.00	10.0	SW	51.9	53.1	51.8	29.941	0.00	0.00	0.492	0.000	78.7	40	52.3	77.9	1405	1	100.0	60
05/16/19	7:00 a	54.2	54.2	53.1	87	50.4	5.0	SSW	5.00	11.0	SW	53.1	54.2	53.1	29.955	0.00	0.00	0.450	0.000	78.4	40	52.1	77.5	1405	1	100.0	60
05/16/19	8:00 a	56.5	56.5	54.2	84	51.7	4.0	SW	4.00	10.0	WSW	56.4	56.4	56.3	29.966	0.00	0.00	0.354	0.000	78.4	40	52.1	77.5	1405	1	100.0	60
05/16/19	9:00 a	63.6	63.6	56.6	73	54.8	5.0	SW	5.00	13.0	W	63.6	63.5	63.5	29.971	0.00	0.00	0.058	0.000	79.2	39	52.1	78.3	1405	1	100.0	60
05/16/19	10:00 a	69.7	69.7	63.7	62	56.1	6.0	W	6.00	14.0	WNW	69.7	69.2	69.2	29.971	0.00	0.00	0.000	0.196	80.6	41	54.7	79.7	1405	1	100.0	60
05/16/19	11:00 a	71.9	71.9	69.7	56	55.3	7.0	WNW	7.00	18.0	WSW	71.9	71.4	71.4	29.966	0.00	0.00	0.000	0.288	82.3	40	55.6	81.7	1405	1	100.0	60
05/16/19	12:00 p	73.4	73.4	71.9	48	52.5	7.0	WNW	7.00	18.0	NW	73.4	72.8	72.8	29.948	0.00	0.00	0.000	0.350	84.2	40	57.3	84.5	1405	1	100.0	60
05/16/19	1:00 p	75.3	75.3	73.4	42	50.6	7.0	WSW	7.00	18.0	W	75.3	74.7	74.7	29.934	0.00	0.00	0.000	0.429	85.8	40	58.7	86.0	1405	1	100.0	60
05/16/19	2:00 p	76.6	76.6	75.3	37	48.4	7.0	WNW	7.00	19.0	WSW	76.6	75.6	75.6	29.918	0.00	0.00	0.000	0.483	87.4	40	60.1	87.7	1405	1	100.0	60
05/16/19	3:00 p	77.8	77.8	76.6	41	52.2	7.0	WSW	7.00	26.0	SSE	77.8	77.0	77.0	29.906	0.00	0.00	0.000	0.533	89.1	40	61.6	90.1	1405	1	100.0	60
05/16/19	4:00 p	78.7	78.7	77.8	40	52.3	7.0	W	7.00	17.0	NW	78.7	77.9	77.9	29.888	0.00	0.00	0.000	0.571	91.3	39	62.9	93.0	1405	1	100.0	60
05/16/19	5:00 p	80.1	80.1	78.6	38	52.2	7.0	WSW	7.00	18.0	W	80.1	78.9	78.9	29.874	0.00	0.00	0.000	0.629	93.0	39	64.4	95.8	1405	1	100.0	60
05/16/19	6:00 p	81.1	81.4	80.1	37	52.4	7.0	W	7.00	18.0	W	81.1	79.8	79.8	29.872	0.00	0.00	0.000	0.671	90.7	31	55.9	90.0	1405	1	100.0	60
05/16/19	7:00 p	80.3	81.2	80.3	39	53.1	6.0	W	6.00	14.0	WSW	80.3	79.2	79.2	29.871	0.00	0.00	0.000	0.638	89.5	35	58.2	89.1	1404	1	100.0	60
05/16/19	8:00 p	77.9	80.3	77.9	44	54.2	4.0	W	4.00	13.0	W	77.9	77.4	77.4	29.887	0.00	0.00	0.000	0.538	88.0	32	54.4	86.1	1406	1	100.0	60
05/16/19	9:00 p	73.8	77.9	73.8	53	55.6	0.0	NNW	0.00	7.0	S	73.8	73.8	73.8	29.903	0.00	0.00	0.000	0.367	88.4	34	56.5	87.2	1404	1	100.0	60
05/16/19	10:00 p	69.6	73.8	69.6	64	56.9	4.0	SSE	4.00	10.0	S	69.6	69.3	69.3	29.915	0.00	0.00	0.000	0.192	87.4	35	56.4	86.4	1405	1	100.0	60
05/16/19	11:00 p	66.9	69.6	66.9	70	56.8	0.0	SSE	0.00	6.0	SSE	66.9	67.3	67.3	29.926	0.00	0.00	0.000	0.079	86.5	37	57.1	86.2	1405	1	100.0	60
05/17/19	12:00 a	64.9	67.0	64.9	75	56.8	0.0	SSE	0.00	5.0	SSE	64.9	65.2	65.2	29.927	0.00	0.00	0.004	0.000	86.1	37	56.8	85.8	1405	1	100.0	60
FRIDAY			Temp	Hi	Low	Out	Dew	Wind	Wind	Wind	Hi	Hi	Wind	Heat	THW			Rain	Heat	Cool	In 	In	In 	In 	Wind	Wind	ISS 	Arc.
Date		Time	Out	Temp	Temp	Hum	Pt.	Speed	Dir	Run	Speed	Dir	Chill	Index	Index	Bar  	Rain	Rate	D-D 	D-D 	Temp	Hum	Dew	Heat	Samp	Tx 	Recept	Int.
05/17/19	1:00 a	63.2	64.8	63.1	78	56.2	0.0	SSE	0.00	5.0	SSE	63.2	63.4	63.4	29.925	0.00	0.00	0.075	0.000	85.4	38	56.9	85.2	1404	1	100.0	60
05/17/19	2:00 a	61.7	63.1	61.7	79	55.1	0.0	SSE	0.00	4.0	SSE	61.7	61.8	61.8	29.905	0.00	0.00	0.137	0.000	83.1	37	54.1	82.3	1405	1	100.0	60
05/17/19	3:00 a	60.2	61.7	60.2	81	54.3	0.0	SSE	0.00	10.0	S	60.2	60.2	60.2	29.895	0.00	0.00	0.200	0.000	82.4	38	54.2	81.6	1405	1	100.0	60
05/17/19	4:00 a	59.6	60.2	59.5	83	54.4	4.0	S	4.00	10.0	S	59.6	59.6	59.6	29.892	0.00	0.00	0.225	0.000	81.7	38	53.6	80.7	1405	1	100.0	60
05/17/19	5:00 a	59.5	59.6	59.5	87	55.6	4.0	S	4.00	10.0	SSW	59.5	59.6	59.6	29.891	0.00	0.00	0.229	0.000	81.1	39	53.8	80.0	1405	1	100.0	60
05/17/19	6:00 a	60.1	60.1	59.5	91	57.5	5.0	SW	5.00	13.0	WSW	60.1	60.4	60.4	29.887	0.00	0.00	0.204	0.000	80.5	39	53.3	79.4	1404	1	100.0	60
05/17/19	7:00 a	61.1	61.1	60.1	94	59.4	4.0	SW	4.00	12.0	SW	61.1	61.6	61.6	29.899	0.00	0.00	0.163	0.000	80.7	39	53.4	79.6	1405	1	100.0	60
05/17/19	8:00 a	64.9	64.9	61.1	94	63.1	6.0	SW	6.00	15.0	SSE	64.9	66.0	66.0	29.898	0.00	0.00	0.004	0.000	81.0	39	53.7	79.9	1405	1	100.0	60
05/17/19	9:00 a	72.4	72.4	64.8	82	66.6	7.0	SW	7.00	20.0	SW	72.4	74.1	74.1	29.895	0.00	0.00	0.000	0.308	81.9	39	54.5	81.1	1405	1	100.0	60
05/17/19	10:00 a	77.2	77.2	72.4	75	68.7	7.0	SW	7.00	19.0	S	77.2	79.7	79.7	29.902	0.00	0.00	0.000	0.508	83.1	39	55.6	82.7	1405	1	100.0	60
05/17/19	11:00 a	80.2	80.2	77.2	69	69.1	10.0	SW	10.00	19.0	SSW	78.6	82.9	81.3	29.887	0.00	0.00	0.000	0.633	84.6	39	56.9	84.6	1405	1	100.0	60
05/17/19	12:00 p	82.2	82.2	80.2	64	68.8	10.0	SW	10.00	21.0	SW	80.8	85.3	83.9	29.867	0.00	0.00	0.000	0.717	85.5	39	57.7	85.5	1405	1	100.0	60
05/17/19	1:00 p	82.7	82.7	82.2	66	70.2	10.0	SSW	10.00	23.0	SW	81.4	86.7	85.4	29.837	0.00	0.00	0.000	0.737	86.9	38	58.2	86.8	1405	1	100.0	60
05/17/19	2:00 p	84.9	84.9	82.7	61	69.9	10.0	SSW	10.00	20.0	SW	84.0	89.6	88.7	29.800	0.00	0.00	0.000	0.829	87.3	38	58.6	87.1	1405	1	100.0	60
05/17/19	3:00 p	86.9	86.9	84.9	56	69.3	10.0	SSW	10.00	22.0	SSE	86.3	92.0	91.4	29.791	0.00	0.00	0.000	0.913	88.8	34	56.8	87.7	1405	1	100.0	60
05/17/19	4:00 p	86.3	86.9	86.3	52	66.6	10.0	SW	10.00	22.0	WSW	85.6	89.4	88.7	29.774	0.00	0.00	0.000	0.888	89.6	37	59.9	89.8	1405	1	100.0	60
05/17/19	5:00 p	86.9	86.9	86.3	51	66.6	10.0	WSW	10.00	19.0	SW	86.3	90.2	89.6	29.768	0.00	0.00	0.000	0.913	90.2	32	56.4	89.6	1405	1	100.0	60
05/17/19	6:00 p	87.3	87.3	86.7	50	66.4	10.0	W	10.00	24.0	WSW	86.8	90.5	90.0	29.775	0.00	0.00	0.000	0.929	90.8	36	60.2	91.3	1405	1	100.0	60
05/17/19	7:00 p	87.0	87.4	87.0	50	66.1	10.0	WNW	10.00	19.0	WNW	86.4	90.1	89.5	29.787	0.00	0.00	0.000	0.917	90.4	30	54.7	89.5	1405	1	100.0	60
05/17/19	8:00 p	84.7	87.0	84.7	54	66.2	6.0	NW	6.00	15.0	WNW	84.7	87.3	87.3	29.815	0.00	0.00	0.000	0.821	89.9	35	58.6	89.7	1405	1	100.0	60
05/17/19	9:00 p	81.4	84.7	81.4	60	66.2	5.0	NW	5.00	13.0	NW	81.4	83.3	83.3	29.836	0.00	0.00	0.000	0.683	89.7	36	59.2	89.7	1404	1	100.0	60
05/17/19	10:00 p	78.3	81.3	78.3	67	66.4	4.0	N	4.00	5.0	NW	78.3	80.0	80.0	29.852	0.00	0.00	0.000	0.554	87.3	31	53.0	85.6	1405	1	100.0	60
05/17/19	11:00 p	75.4	78.3	75.4	73	66.1	0.0	N	0.00	5.0	N	75.4	77.4	77.4	29.866	0.00	0.00	0.000	0.433	87.2	34	55.4	86.1	1405	1	100.0	60
05/18/19	12:00 a	73.4	75.4	73.4	77	65.7	4.0	N	4.00	6.0	WNW	73.4	75.1	75.1	29.866	0.00	0.00	0.000	0.350	86.4	35	55.5	85.7	1405	1	100.0	60
SATURDAY		Temp	Hi	Low	Out	Dew	Wind	Wind	Wind	Hi	Hi	Wind	Heat	THW			Rain	Heat	Cool	In 	In	In 	In 	Wind	Wind	ISS 	Arc.
Date		Time	Out	Temp	Temp	Hum	Pt.	Speed	Dir	Run	Speed	Dir	Chill	Index	Index	Bar  	Rain	Rate	D-D 	D-D 	Temp	Hum	Dew	Heat	Samp	Tx 	Recept	Int.
05/18/19	1:00 a	70.4	73.4	70.4	91	67.6	10.0	WNW	10.00	31.0	NNW	68.3	72.6	70.5	29.914	0.40	1.85	0.000	0.225	84.3	35	53.7	83.6	1404	1	100.0	60
05/18/19	2:00 a	68.8	70.4	68.8	95	67.3	4.0	NE	4.00	7.0	NW	68.8	71.0	71.0	29.872	0.18	0.51	0.000	0.158	84.3	36	54.4	83.8	1405	1	100.0	60
05/18/19	3:00 a	67.2	68.8	67.2	96	66.0	4.0	E	4.00	11.0	W	67.2	68.9	68.9	29.867	0.00	0.00	0.000	0.092	84.0	37	54.9	83.7	1405	1	100.0	60
05/18/19	4:00 a	66.0	67.2	66.0	97	65.1	4.0	SSW	4.00	10.0	SSW	66.0	67.4	67.4	29.873	0.00	0.00	0.000	0.042	83.6	38	55.3	83.3	1405	1	100.0	60
05/18/19	5:00 a	65.1	66.0	65.1	97	64.2	4.0	SSW	4.00	6.0	SSW	65.1	66.4	66.4	29.888	0.00	0.00	0.000	0.004	83.1	38	54.9	82.5	1405	1	100.0	60
05/18/19	6:00 a	65.0	65.1	64.9	98	64.4	0.0	SSW	0.00	5.0	SSW	65.0	66.3	66.3	29.901	0.00	0.00	0.000	0.000	82.7	39	55.2	82.1	1405	1	100.0	60
05/18/19	7:00 a	65.6	65.6	65.0	99	65.3	0.0	SSW	0.00	5.0	SSW	65.6	67.0	67.0	29.928	0.00	0.00	0.000	0.025	82.9	39	55.4	82.4	1401	1	100.0	60
05/18/19	8:00 a	67.2	67.2	65.6	99	66.9	5.0	NNW	5.00	6.0	NNW	67.2	69.0	69.0	29.948	0.00	0.00	0.000	0.092	82.7	39	55.2	82.1	1405	1	100.0	60
05/18/19	9:00 a	70.5	70.5	67.2	100	70.5	5.0	NNW	5.00	10.0	NNW	70.5	74.1	74.1	29.964	0.00	0.00	0.000	0.229	81.7	37	52.9	80.6	1404	1	100.0	60
05/18/19	10:00 a	73.2	73.2	70.5	89	69.8	5.0	NW	5.00	15.0	N	73.2	75.6	75.6	29.982	0.00	0.00	0.000	0.342	83.6	37	54.6	83.1	1405	1	100.0	60
05/18/19	11:00 a	77.6	77.6	73.2	78	70.2	6.0	NNW	6.00	14.0	NNW	77.6	80.6	80.6	29.995	0.00	0.00	0.000	0.525	84.9	36	55.0	84.3	1405	1	100.0	60
05/18/19	12:00 p	79.4	79.4	77.6	76	71.2	5.0	NNW	5.00	13.0	NNW	79.4	82.8	82.8	29.984	0.00	0.00	0.000	0.600	87.6	37	58.1	87.1	1405	1	100.0	60
05/18/19	1:00 p	82.1	82.1	79.4	72	72.2	5.0	ENE	5.00	11.0	NE	82.1	87.0	87.0	29.979	0.00	0.00	0.000	0.712	89.9	37	60.1	90.3	1405	1	100.0	60
05/18/19	2:00 p	83.5	83.6	82.1	69	72.3	7.0	ENE	7.00	18.0	NNW	83.5	89.3	89.3	29.976	0.00	0.00	0.000	0.771	90.0	38	61.0	90.7	1405	1	100.0	60
05/18/19	3:00 p	80.7	83.5	80.7	73	71.2	11.0	NE	11.00	20.0	ENE	78.9	84.5	82.7	29.972	0.00	0.00	0.000	0.654	91.5	35	60.0	91.9	1405	1	100.0	60
05/18/19	4:00 p	81.8	81.8	80.7	70	71.1	7.0	ENE	7.00	16.0	NE	81.8	85.9	85.9	29.957	0.00	0.00	0.000	0.700	91.6	34	59.3	91.8	1405	1	100.0	60
05/18/19	5:00 p	82.7	82.7	81.8	68	71.1	6.0	ENE	6.00	15.0	NE	82.7	87.2	87.2	29.956	0.00	0.00	0.000	0.737	94.1	33	60.6	95.0	1405	1	100.0	60
05/18/19	6:00 p	82.1	83.1	82.1	66	69.6	6.0	SSE	6.00	14.0	NE	82.1	85.6	85.6	29.966	0.00	0.00	0.000	0.712	92.8	33	59.5	93.2	1405	1	100.0	60
05/18/19	7:00 p	81.0	82.1	81.0	68	69.4	5.0	SSE	5.00	14.0	SSE	81.0	84.0	84.0	29.982	0.00	0.00	0.000	0.667	93.3	33	59.9	93.9	1405	1	100.0	60
05/18/19	8:00 p	78.5	81.0	78.5	71	68.3	6.0	SSE	6.00	15.0	SSE	78.5	80.8	80.8	29.999	0.00	0.00	0.000	0.563	90.4	33	57.4	90.0	1405	1	100.0	60
05/18/19	9:00 p	74.5	78.5	74.5	79	67.6	6.0	SSE	6.00	16.0	SSE	74.5	76.7	76.7	30.006	0.00	0.00	0.000	0.396	90.6	34	58.4	90.5	1405	1	100.0	60
05/18/19	10:00 p	71.6	74.5	71.6	84	66.5	7.0	SSE	7.00	15.0	S	71.6	73.3	73.3	30.026	0.00	0.00	0.000	0.275	88.5	29	52.2	86.2	1405	1	100.0	60
05/18/19	11:00 p	70.0	71.6	70.0	88	66.3	6.0	SSE	6.00	14.0	SSE	70.0	71.8	71.8	30.035	0.00	0.00	0.000	0.208	88.0	34	56.1	86.6	1405	1	100.0	60
05/19/19	12:00 a	69.1	70.0	69.1	91	66.4	6.0	SSE	6.00	13.0	SSE	69.1	71.2	71.2	30.030	0.00	0.00	0.000	0.171	87.0	38	58.3	86.9	1405	1	100.0	60
SUNDAY			Temp	Hi	Low	Out	Dew	Wind	Wind	Wind	Hi	Hi	Wind	Heat	THW			Rain	Heat	Cool	In 	In	In 	In 	Wind	Wind	ISS 	Arc.
Date		Time	Out	Temp	Temp	Hum	Pt.	Speed	Dir	Run	Speed	Dir	Chill	Index	Index	Bar  	Rain	Rate	D-D 	D-D 	Temp	Hum	Dew	Heat	Samp	Tx 	Recept	Int.
05/19/19	1:00 a	68.7	69.1	68.7	93	66.6	5.0	SSE	5.00	11.0	SSE	68.7	70.8	70.8	30.035	0.00	0.00	0.000	0.154	85.0	39	57.3	84.9	1402	1	100.0	60
05/19/19	2:00 a	68.6	68.7	68.6	95	67.1	6.0	SSE	6.00	11.0	SSE	68.6	70.7	70.7	30.026	0.00	0.00	0.000	0.150	84.7	42	59.1	85.2	1405	1	100.0	60
05/19/19	3:00 a	68.5	68.6	68.4	96	67.3	5.0	SSE	5.00	11.0	SSE	68.5	70.7	70.7	30.019	0.00	0.00	0.000	0.146	84.6	43	59.6	85.3	1405	1	100.0	60
05/19/19	4:00 a	68.5	68.5	68.4	97	67.6	5.0	S	5.00	11.0	S	68.5	70.7	70.7	30.020	0.00	0.00	0.000	0.146	84.2	45	60.6	85.3	1405	1	100.0	60
05/19/19	5:00 a	68.3	68.5	68.3	97	67.4	5.0	S	5.00	10.0	SSE	68.3	70.4	70.4	30.024	0.00	0.00	0.000	0.138	83.9	44	59.7	84.8	1405	1	100.0	60
05/19/19	6:00 a	68.2	68.3	68.1	97	67.3	5.0	SSE	5.00	13.0	SSE	68.2	70.3	70.3	30.027	0.00	0.00	0.000	0.133	83.6	47	61.2	84.7	1405	1	100.0	60
05/19/19	7:00 a	69.8	69.8	68.2	99	69.5	4.0	S	4.00	10.0	S	69.8	73.0	73.0	30.038	0.00	0.00	0.000	0.200	84.1	46	61.1	85.3	1405	1	100.0	60
 
			Temp	Hi	Low	Out	Dew	Wind	Wind	Wind	Hi	Hi	Wind	Heat	THW			Rain	Heat	Cool	In 	In	In 	In 	Wind	Wind	ISS 	Arc.
Date		Time	Out	Temp	Temp	Hum	Pt.	Speed	Dir	Run	Speed	Dir	Chill	Index	Index	Bar  	Rain	Rate	D-D 	D-D 	Temp	Hum	Dew	Heat	Samp	Tx 	Recept	Int.
-----------------------------------------------------------------------------------------------------------------------------------------------------------------------------------